<?xml version='1.0' encoding='UTF-8'?><gpx version="1.1" creator="JPX - https://github.com/jenetics/jpx" xmlns="http://www.topografix.com/GPX/1/1"><trk><trkseg><trkpt lat="43.3114054850907" lon="10.52323928897862"><ele>15.428571428571429</ele><time>2026-03-30T15:56:27Z</time></trkpt><trkpt lat="43.31147546256981" lon="10.523232836006981"><ele>15.857142857142858</ele><time>2026-03-30T15:56:41Z</time></trkpt><trkpt lat="43.31150843950358" lon="10.523156628144116"><ele>16.285714285714285</ele><time>2026-03-30T15:56:50Z</time></trkpt><trkpt lat="43.311547914799995" lon="10.523081707934608"><ele>16.714285714285715</ele><time>2026-03-30T15:56:56Z</time></trkpt><trkpt lat="43.31158249513148" lon="10.523006847864668"><ele>17.142857142857142</ele><time>2026-03-30T15:57:02Z</time></trkpt><trkpt lat="43.31164079230847" lon="10.522971250460799"><ele>17.571428571428573</ele><time>2026-03-30T15:57:06Z</time></trkpt><trkpt lat="43.31171289348852" lon="10.522958882520301"><ele>18.0</ele><time>2026-03-30T15:57:09Z</time></trkpt><trkpt lat="43.31177705531901" lon="10.522947503998257"><ele>18.0</ele><time>2026-03-30T15:57:12Z</time></trkpt><trkpt lat="43.31184520915614" lon="10.5229220031163"><ele>18.0</ele><time>2026-03-30T15:57:15Z</time></trkpt><trkpt lat="43.31192253627571" lon="10.52290150776004"><ele>18.0</ele><time>2026-03-30T15:57:19Z</time></trkpt><trkpt lat="43.311994159776866" lon="10.522862445514598"><ele>18.0</ele><time>2026-03-30T15:57:23Z</time></trkpt><trkpt lat="43.312044135008065" lon="10.522804136119182"><ele>18.0</ele><time>2026-03-30T15:57:25Z</time></trkpt><trkpt lat="43.31210292219317" lon="10.522732081038537"><ele>18.0</ele><time>2026-03-30T15:57:28Z</time></trkpt><trkpt lat="43.31218831480547" lon="10.522688878597055"><ele>18.28571428571429</ele><time>2026-03-30T15:57:31Z</time></trkpt><trkpt lat="43.31225260695222" lon="10.522663407493976"><ele>18.571428571428573</ele><time>2026-03-30T15:57:35Z</time></trkpt><trkpt lat="43.31231263951584" lon="10.52262398025895"><ele>18.857142857142858</ele><time>2026-03-30T15:57:39Z</time></trkpt><trkpt lat="43.31237009946766" lon="10.522584403274289"><ele>19.142857142857146</ele><time>2026-03-30T15:57:43Z</time></trkpt><trkpt lat="43.312433009016935" lon="10.52257401330872"><ele>19.42857142857143</ele><time>2026-03-30T15:57:47Z</time></trkpt><trkpt lat="43.31250306385786" lon="10.52256509705388"><ele>19.714285714285715</ele><time>2026-03-30T15:57:51Z</time></trkpt><trkpt lat="43.3125723178794" lon="10.522537889553446"><ele>20.0</ele><time>2026-03-30T15:57:57Z</time></trkpt><trkpt lat="43.31264979808781" lon="10.522493716700927"><ele>20.0</ele><time>2026-03-30T15:58:01Z</time></trkpt><trkpt lat="43.31271413922992" lon="10.522447896642047"><ele>20.0</ele><time>2026-03-30T15:58:05Z</time></trkpt><trkpt lat="43.31277896434128" lon="10.522428483215778"><ele>20.0</ele><time>2026-03-30T15:58:09Z</time></trkpt><trkpt lat="43.312843954462224" lon="10.522383000163586"><ele>20.0</ele><time>2026-03-30T15:58:13Z</time></trkpt><trkpt lat="43.31292559765707" lon="10.522366601116275"><ele>20.0</ele><time>2026-03-30T15:58:17Z</time></trkpt><trkpt lat="43.31299006709838" lon="10.522350506028042"><ele>20.0</ele><time>2026-03-30T15:58:21Z</time></trkpt><trkpt lat="43.31306758637358" lon="10.522334199293573"><ele>20.0</ele><time>2026-03-30T15:58:25Z</time></trkpt><trkpt lat="43.31312687970979" lon="10.522270740090141"><ele>19.857142857142858</ele><time>2026-03-30T15:58:29Z</time></trkpt><trkpt lat="43.313191992276394" lon="10.522223724470036"><ele>19.714285714285715</ele><time>2026-03-30T15:58:32Z</time></trkpt><trkpt lat="43.3132540454776" lon="10.522131249136606"><ele>19.57142857142857</ele><time>2026-03-30T15:58:36Z</time></trkpt><trkpt lat="43.31329168082076" lon="10.522055927685921"><ele>19.42857142857143</ele><time>2026-03-30T15:58:39Z</time></trkpt><trkpt lat="43.31335069948599" lon="10.52202264402891"><ele>19.28571428571429</ele><time>2026-03-30T15:58:41Z</time></trkpt><trkpt lat="43.313419368003764" lon="10.521979641458262"><ele>19.142857142857142</ele><time>2026-03-30T15:58:46Z</time></trkpt><trkpt lat="43.31346537506387" lon="10.521919648203552"><ele>19.0</ele><time>2026-03-30T15:58:49Z</time></trkpt><trkpt lat="43.31349781450003" lon="10.521813926418146"><ele>19.0</ele><time>2026-03-30T15:58:54Z</time></trkpt><trkpt lat="43.31353452978891" lon="10.52173872473069"><ele>19.0</ele><time>2026-03-30T15:58:58Z</time></trkpt><trkpt lat="43.31356088519861" lon="10.521645488184063"><ele>19.0</ele><time>2026-03-30T15:59:03Z</time></trkpt><trkpt lat="43.31358639230026" lon="10.521556943640329"><ele>19.0</ele><time>2026-03-30T15:59:07Z</time></trkpt><trkpt lat="43.313618568704825" lon="10.521463954250912"><ele>19.0</ele><time>2026-03-30T15:59:11Z</time></trkpt><trkpt lat="43.313654696727234" lon="10.521365875500397"><ele>19.0</ele><time>2026-03-30T15:59:15Z</time></trkpt><trkpt lat="43.313696397043714" lon="10.52127353229708"><ele>19.0</ele><time>2026-03-30T15:59:19Z</time></trkpt><trkpt lat="43.313734846238745" lon="10.521189092742857"><ele>19.0</ele><time>2026-03-30T15:59:23Z</time></trkpt><trkpt lat="43.31377180394474" lon="10.521112387999713"><ele>19.0</ele><time>2026-03-30T15:59:27Z</time></trkpt><trkpt lat="43.31379898762137" lon="10.521031066536448"><ele>19.0</ele><time>2026-03-30T15:59:31Z</time></trkpt><trkpt lat="43.31385419000617" lon="10.520958410752772"><ele>19.0</ele><time>2026-03-30T15:59:35Z</time></trkpt><trkpt lat="43.31391982128241" lon="10.520926361848856"><ele>19.0</ele><time>2026-03-30T15:59:41Z</time></trkpt><trkpt lat="43.3139826101063" lon="10.520911752731866"><ele>19.0</ele><time>2026-03-30T15:59:46Z</time></trkpt><trkpt lat="43.31405199406038" lon="10.52086237536986"><ele>19.0</ele><time>2026-03-30T15:59:51Z</time></trkpt><trkpt lat="43.31413177129163" lon="10.520830476767106"><ele>18.71428571428571</ele><time>2026-03-30T15:59:55Z</time></trkpt><trkpt lat="43.31419621086659" lon="10.520806827428336"><ele>18.42857142857143</ele><time>2026-03-30T15:59:58Z</time></trkpt><trkpt lat="43.31426442170425" lon="10.520753793879761"><ele>18.142857142857142</ele><time>2026-03-30T16:00:03Z</time></trkpt><trkpt lat="43.314322239733805" lon="10.520703241199884"><ele>17.857142857142854</ele><time>2026-03-30T16:00:06Z</time></trkpt><trkpt lat="43.31438540331739" lon="10.520696197524002"><ele>17.57142857142857</ele><time>2026-03-30T16:00:09Z</time></trkpt><trkpt lat="43.31446441040316" lon="10.52067909944267"><ele>17.285714285714285</ele><time>2026-03-30T16:00:14Z</time></trkpt><trkpt lat="43.31452870871097" lon="10.52067018709203"><ele>17.0</ele><time>2026-03-30T16:00:18Z</time></trkpt><trkpt lat="43.31459658838109" lon="10.520679040556129"><ele>17.0</ele><time>2026-03-30T16:00:22Z</time></trkpt><trkpt lat="43.314662786336505" lon="10.52067504473325"><ele>17.0</ele><time>2026-03-30T16:00:25Z</time></trkpt><trkpt lat="43.3147316992958" lon="10.52065406873379"><ele>17.0</ele><time>2026-03-30T16:00:28Z</time></trkpt><trkpt lat="43.314815985404756" lon="10.520644566623522"><ele>17.0</ele><time>2026-03-30T16:00:34Z</time></trkpt><trkpt lat="43.314896670806455" lon="10.520643127793187"><ele>17.0</ele><time>2026-03-30T16:00:39Z</time></trkpt><trkpt lat="43.31497286217788" lon="10.520662713714083"><ele>17.0</ele><time>2026-03-30T16:00:43Z</time></trkpt><trkpt lat="43.31505283144081" lon="10.520658570048683"><ele>16.71428571428571</ele><time>2026-03-30T16:00:47Z</time></trkpt><trkpt lat="43.31512008473056" lon="10.520673044392696"><ele>16.428571428571427</ele><time>2026-03-30T16:00:51Z</time></trkpt><trkpt lat="43.31518956295018" lon="10.520636853618175"><ele>16.142857142857142</ele><time>2026-03-30T16:00:56Z</time></trkpt><trkpt lat="43.31520931703586" lon="10.520550016658525"><ele>15.857142857142856</ele><time>2026-03-30T16:01:00Z</time></trkpt><trkpt lat="43.315231754612576" lon="10.520460261036945"><ele>15.57142857142857</ele><time>2026-03-30T16:01:02Z</time></trkpt><trkpt lat="43.315227809182545" lon="10.520373435115989"><ele>15.285714285714286</ele><time>2026-03-30T16:01:05Z</time></trkpt><trkpt lat="43.31520820945324" lon="10.520268956229291"><ele>15.0</ele><time>2026-03-30T16:01:09Z</time></trkpt><trkpt lat="43.3152044848922" lon="10.520171453368048"><ele>15.571428571428573</ele><time>2026-03-30T16:01:14Z</time></trkpt><trkpt lat="43.31518076359949" lon="10.520079170386442"><ele>16.142857142857142</ele><time>2026-03-30T16:01:18Z</time></trkpt><trkpt lat="43.315146590192846" lon="10.519996213192687"><ele>16.714285714285715</ele><time>2026-03-30T16:01:22Z</time></trkpt><trkpt lat="43.31512425623735" lon="10.51991423319071"><ele>17.285714285714285</ele><time>2026-03-30T16:01:26Z</time></trkpt><trkpt lat="43.31509840212785" lon="10.519813822196737"><ele>17.857142857142858</ele><time>2026-03-30T16:01:31Z</time></trkpt><trkpt lat="43.31506279041429" lon="10.519740650224048"><ele>18.428571428571427</ele><time>2026-03-30T16:01:34Z</time></trkpt><trkpt lat="43.315029755140024" lon="10.519647979243997"><ele>19.0</ele><time>2026-03-30T16:01:38Z</time></trkpt><trkpt lat="43.314996575499514" lon="10.519558264914869"><ele>19.0</ele><time>2026-03-30T16:01:44Z</time></trkpt><trkpt lat="43.31497605534812" lon="10.519465977801435"><ele>19.0</ele><time>2026-03-30T16:01:49Z</time></trkpt><trkpt lat="43.314930843378775" lon="10.519392150504618"><ele>19.0</ele><time>2026-03-30T16:01:52Z</time></trkpt><trkpt lat="43.31489284911551" lon="10.519318655572803"><ele>19.0</ele><time>2026-03-30T16:01:55Z</time></trkpt><trkpt lat="43.31489311018887" lon="10.5192224215297"><ele>19.0</ele><time>2026-03-30T16:01:59Z</time></trkpt><trkpt lat="43.314881076058384" lon="10.519121607739828"><ele>19.0</ele><time>2026-03-30T16:02:03Z</time></trkpt><trkpt lat="43.3148491425118" lon="10.519024252284336"><ele>19.0</ele><time>2026-03-30T16:02:08Z</time></trkpt><trkpt lat="43.31480618500861" lon="10.518926502670816"><ele>19.0</ele><time>2026-03-30T16:02:12Z</time></trkpt><trkpt lat="43.314773472028634" lon="10.51884315638047"><ele>19.0</ele><time>2026-03-30T16:02:15Z</time></trkpt><trkpt lat="43.31473648096088" lon="10.51876696570094"><ele>19.0</ele><time>2026-03-30T16:02:18Z</time></trkpt><trkpt lat="43.31471598581743" lon="10.51867109361077"><ele>19.0</ele><time>2026-03-30T16:02:22Z</time></trkpt><trkpt lat="43.314687716958304" lon="10.518581198195879"><ele>19.0</ele><time>2026-03-30T16:02:26Z</time></trkpt><trkpt lat="43.31465304118753" lon="10.518482119877788"><ele>19.0</ele><time>2026-03-30T16:02:30Z</time></trkpt><trkpt lat="43.31462887464834" lon="10.518395628866362"><ele>19.0</ele><time>2026-03-30T16:02:34Z</time></trkpt><trkpt lat="43.314600205311116" lon="10.518312926242233"><ele>18.428571428571427</ele><time>2026-03-30T16:02:39Z</time></trkpt><trkpt lat="43.31456602615424" lon="10.518231041293063"><ele>17.857142857142858</ele><time>2026-03-30T16:02:43Z</time></trkpt><trkpt lat="43.314532920747546" lon="10.518135969387847"><ele>17.285714285714285</ele><time>2026-03-30T16:02:47Z</time></trkpt><trkpt lat="43.31451040396324" lon="10.518033479889846"><ele>16.714285714285715</ele><time>2026-03-30T16:02:52Z</time></trkpt><trkpt lat="43.314495899388284" lon="10.517935497397085"><ele>16.142857142857142</ele><time>2026-03-30T16:02:56Z</time></trkpt><trkpt lat="43.31446525275167" lon="10.51785004013356"><ele>15.571428571428573</ele><time>2026-03-30T16:03:00Z</time></trkpt><trkpt lat="43.314414746310185" lon="10.517777875693872"><ele>15.0</ele><time>2026-03-30T16:03:05Z</time></trkpt><trkpt lat="43.31441376244495" lon="10.517674412105162"><ele>14.833333333333334</ele><time>2026-03-30T16:03:09Z</time></trkpt><trkpt lat="43.31440265243516" lon="10.517562329077832"><ele>14.666666666666668</ele><time>2026-03-30T16:03:13Z</time></trkpt><trkpt lat="43.31437629702501" lon="10.517454361210355"><ele>14.5</ele><time>2026-03-30T16:03:17Z</time></trkpt><trkpt lat="43.31434770484241" lon="10.517356450416637"><ele>14.333333333333334</ele><time>2026-03-30T16:03:21Z</time></trkpt><trkpt lat="43.31430425504349" lon="10.517270574805163"><ele>14.166666666666668</ele><time>2026-03-30T16:03:25Z</time></trkpt><trkpt lat="43.31427382793131" lon="10.51719111132543"><ele>14.0</ele><time>2026-03-30T16:03:29Z</time></trkpt><trkpt lat="43.31422754588033" lon="10.517108090455219"><ele>14.142857142857142</ele><time>2026-03-30T16:03:33Z</time></trkpt><trkpt lat="43.31418436535727" lon="10.517035586412446"><ele>14.285714285714285</ele><time>2026-03-30T16:03:37Z</time></trkpt><trkpt lat="43.314160662871416" lon="10.516951484097603"><ele>14.428571428571429</ele><time>2026-03-30T16:03:41Z</time></trkpt><trkpt lat="43.31413838614272" lon="10.51684700742004"><ele>14.571428571428571</ele><time>2026-03-30T16:03:45Z</time></trkpt><trkpt lat="43.314094073080234" lon="10.516775432305442"><ele>14.714285714285714</ele><time>2026-03-30T16:03:49Z</time></trkpt><trkpt lat="43.31404814816173" lon="10.516703320039172"><ele>14.857142857142858</ele><time>2026-03-30T16:03:52Z</time></trkpt><trkpt lat="43.314023006225526" lon="10.51661323454623"><ele>15.0</ele><time>2026-03-30T16:03:57Z</time></trkpt><trkpt lat="43.31399152107607" lon="10.516507181615333"><ele>15.0</ele><time>2026-03-30T16:04:02Z</time></trkpt><trkpt lat="43.3139755305109" lon="10.516404648080572"><ele>15.0</ele><time>2026-03-30T16:04:06Z</time></trkpt><trkpt lat="43.31397785239571" lon="10.516310821633557"><ele>15.0</ele><time>2026-03-30T16:04:10Z</time></trkpt><trkpt lat="43.31396005908242" lon="10.516227154379724"><ele>15.0</ele><time>2026-03-30T16:04:13Z</time></trkpt><trkpt lat="43.313923266743636" lon="10.51614651277805"><ele>15.0</ele><time>2026-03-30T16:04:17Z</time></trkpt><trkpt lat="43.3139353209748" lon="10.516054223144259"><ele>15.0</ele><time>2026-03-30T16:04:22Z</time></trkpt><trkpt lat="43.31396349760288" lon="10.51597609794177"><ele>15.0</ele><time>2026-03-30T16:04:27Z</time></trkpt><trkpt lat="43.31394892409121" lon="10.515865163819116"><ele>14.714285714285715</ele><time>2026-03-30T16:04:30Z</time></trkpt><trkpt lat="43.313910033350744" lon="10.51578750281908"><ele>14.428571428571427</ele><time>2026-03-30T16:04:33Z</time></trkpt><trkpt lat="43.313892478509175" lon="10.515699529359448"><ele>14.142857142857142</ele><time>2026-03-30T16:04:37Z</time></trkpt><trkpt lat="43.31387803829721" lon="10.515597316552666"><ele>13.857142857142858</ele><time>2026-03-30T16:04:43Z</time></trkpt><trkpt lat="43.3139011657645" lon="10.515507084860046"><ele>13.571428571428573</ele><time>2026-03-30T16:04:48Z</time></trkpt><trkpt lat="43.31392979767442" lon="10.51540353740331"><ele>13.285714285714285</ele><time>2026-03-30T16:04:54Z</time></trkpt><trkpt lat="43.31396229759935" lon="10.51531951402283"><ele>13.0</ele><time>2026-03-30T16:05:04Z</time></trkpt><trkpt lat="43.314023117224075" lon="10.51528403627798"><ele>12.428571428571429</ele><time>2026-03-30T16:05:08Z</time></trkpt><trkpt lat="43.3140837521409" lon="10.515222150394154"><ele>11.857142857142858</ele><time>2026-03-30T16:05:12Z</time></trkpt><trkpt lat="43.31414950872759" lon="10.515167249503484"><ele>11.285714285714286</ele><time>2026-03-30T16:05:16Z</time></trkpt><trkpt lat="43.31420552117829" lon="10.515120671974628"><ele>10.714285714285715</ele><time>2026-03-30T16:05:19Z</time></trkpt><trkpt lat="43.31425830347532" lon="10.51505348619778"><ele>10.142857142857142</ele><time>2026-03-30T16:05:23Z</time></trkpt><trkpt lat="43.314254693047644" lon="10.51495554615538"><ele>9.571428571428573</ele><time>2026-03-30T16:05:27Z</time></trkpt><trkpt lat="43.31424837210813" lon="10.514868217469262"><ele>9.0</ele><time>2026-03-30T16:05:32Z</time></trkpt><trkpt lat="43.31426995509885" lon="10.514784362730941"><ele>9.000000000000002</ele><time>2026-03-30T16:05:38Z</time></trkpt><trkpt lat="43.3143498297336" lon="10.514784303553997"><ele>9.0</ele><time>2026-03-30T16:05:42Z</time></trkpt><trkpt lat="43.31442038531092" lon="10.51476074002276"><ele>9.0</ele><time>2026-03-30T16:05:46Z</time></trkpt><trkpt lat="43.31442679397542" lon="10.514667319867542"><ele>9.0</ele><time>2026-03-30T16:05:51Z</time></trkpt><trkpt lat="43.31439817259654" lon="10.514587834460867"><ele>9.0</ele><time>2026-03-30T16:05:54Z</time></trkpt><trkpt lat="43.31437654451628" lon="10.514493180304402"><ele>9.000000000000002</ele><time>2026-03-30T16:05:58Z</time></trkpt><trkpt lat="43.314351159257804" lon="10.51438603134061"><ele>9.0</ele><time>2026-03-30T16:06:03Z</time></trkpt><trkpt lat="43.314304512350375" lon="10.514297776766252"><ele>8.714285714285715</ele><time>2026-03-30T16:06:07Z</time></trkpt><trkpt lat="43.314276464422576" lon="10.51421395511429"><ele>8.428571428571429</ele><time>2026-03-30T16:06:11Z</time></trkpt><trkpt lat="43.31423636429855" lon="10.514146947074074"><ele>8.142857142857142</ele><time>2026-03-30T16:06:15Z</time></trkpt><trkpt lat="43.31420823011125" lon="10.514051700638563"><ele>7.857142857142858</ele><time>2026-03-30T16:06:19Z</time></trkpt><trkpt lat="43.314178838908155" lon="10.513960361158723"><ele>7.571428571428571</ele><time>2026-03-30T16:06:23Z</time></trkpt><trkpt lat="43.31415142416654" lon="10.513877617851524"><ele>7.285714285714286</ele><time>2026-03-30T16:06:27Z</time></trkpt><trkpt lat="43.314107391637776" lon="10.513806789213794"><ele>7.0</ele><time>2026-03-30T16:06:31Z</time></trkpt><trkpt lat="43.314087231912076" lon="10.513721701790606"><ele>6.714285714285714</ele><time>2026-03-30T16:06:35Z</time></trkpt><trkpt lat="43.31405813804122" lon="10.513632576451604"><ele>6.428571428571429</ele><time>2026-03-30T16:06:39Z</time></trkpt><trkpt lat="43.31402624561435" lon="10.513553282966681"><ele>6.142857142857142</ele><time>2026-03-30T16:06:43Z</time></trkpt><trkpt lat="43.313996196336774" lon="10.51346990344651"><ele>5.857142857142858</ele><time>2026-03-30T16:06:47Z</time></trkpt><trkpt lat="43.3139695522369" lon="10.513385239939069"><ele>5.571428571428571</ele><time>2026-03-30T16:06:51Z</time></trkpt><trkpt lat="43.31394148613218" lon="10.513303216597674"><ele>5.285714285714286</ele><time>2026-03-30T16:06:55Z</time></trkpt><trkpt lat="43.31391010543234" lon="10.513204907842265"><ele>5.0</ele><time>2026-03-30T16:07:00Z</time></trkpt><trkpt lat="43.31387991051808" lon="10.513112168968117"><ele>4.857142857142857</ele><time>2026-03-30T16:07:05Z</time></trkpt><trkpt lat="43.313857734810966" lon="10.51302916257559"><ele>4.714285714285714</ele><time>2026-03-30T16:07:10Z</time></trkpt><trkpt lat="43.31383700633536" lon="10.512938714513249"><ele>4.571428571428571</ele><time>2026-03-30T16:07:14Z</time></trkpt><trkpt lat="43.31385241952333" lon="10.512847574271914"><ele>4.428571428571429</ele><time>2026-03-30T16:07:18Z</time></trkpt><trkpt lat="43.313886657146874" lon="10.512766218615763"><ele>4.285714285714286</ele><time>2026-03-30T16:07:22Z</time></trkpt><trkpt lat="43.31390409435437" lon="10.512664251284841"><ele>4.142857142857142</ele><time>2026-03-30T16:07:26Z</time></trkpt><trkpt lat="43.3139105566126" lon="10.51257638990713"><ele>4.0</ele><time>2026-03-30T16:07:30Z</time></trkpt><trkpt lat="43.313887862877394" lon="10.512480151699261"><ele>3.9999999999999996</ele><time>2026-03-30T16:07:34Z</time></trkpt><trkpt lat="43.313879611546774" lon="10.51238442471412"><ele>4.0</ele><time>2026-03-30T16:07:38Z</time></trkpt><trkpt lat="43.3138618273276" lon="10.51228486086979"><ele>4.0</ele><time>2026-03-30T16:07:42Z</time></trkpt><trkpt lat="43.313863836109945" lon="10.512196697470833"><ele>4.0</ele><time>2026-03-30T16:07:46Z</time></trkpt><trkpt lat="43.31392050366737" lon="10.512122314859788"><ele>3.9999999999999996</ele><time>2026-03-30T16:07:53Z</time></trkpt><trkpt lat="43.31383038200508" lon="10.512051915459079"><ele>4.0</ele><time>2026-03-30T16:07:56Z</time></trkpt><trkpt lat="43.313755824312366" lon="10.512003743319276"><ele>4.714285714285714</ele><time>2026-03-30T16:07:59Z</time></trkpt><trkpt lat="43.31372253333868" lon="10.5119292993166"><ele>5.428571428571429</ele><time>2026-03-30T16:08:01Z</time></trkpt><trkpt lat="43.3136905659634" lon="10.51184652250098"><ele>6.142857142857143</ele><time>2026-03-30T16:08:03Z</time></trkpt><trkpt lat="43.31365734728928" lon="10.511741462225611"><ele>6.857142857142858</ele><time>2026-03-30T16:08:06Z</time></trkpt><trkpt lat="43.313626357325454" lon="10.511644331533802"><ele>7.571428571428571</ele><time>2026-03-30T16:08:10Z</time></trkpt><trkpt lat="43.31360234300118" lon="10.511552543255835"><ele>8.285714285714286</ele><time>2026-03-30T16:08:14Z</time></trkpt><trkpt lat="43.31357971019623" lon="10.511463058952637"><ele>9.0</ele><time>2026-03-30T16:08:18Z</time></trkpt><trkpt lat="43.31354672191959" lon="10.51137429575348"><ele>9.000000000000002</ele><time>2026-03-30T16:08:23Z</time></trkpt><trkpt lat="43.31351725708563" lon="10.511281634646313"><ele>9.0</ele><time>2026-03-30T16:08:27Z</time></trkpt><trkpt lat="43.31350582721108" lon="10.511189494782862"><ele>9.0</ele><time>2026-03-30T16:08:31Z</time></trkpt><trkpt lat="43.31350416283984" lon="10.511099769224979"><ele>9.0</ele><time>2026-03-30T16:08:35Z</time></trkpt><trkpt lat="43.313461795283274" lon="10.511024857514942"><ele>9.0</ele><time>2026-03-30T16:08:40Z</time></trkpt><trkpt lat="43.31339872745945" lon="10.511004631216457"><ele>9.000000000000002</ele><time>2026-03-30T16:08:44Z</time></trkpt><trkpt lat="43.3133324844159" lon="10.51098232575159"><ele>9.0</ele><time>2026-03-30T16:08:48Z</time></trkpt><trkpt lat="43.313272079868625" lon="10.510937946971849"><ele>8.142857142857144</ele><time>2026-03-30T16:08:52Z</time></trkpt><trkpt lat="43.313252577527514" lon="10.510852570818027"><ele>7.285714285714286</ele><time>2026-03-30T16:08:56Z</time></trkpt><trkpt lat="43.31323374182781" lon="10.510764568406547"><ele>6.428571428571429</ele><time>2026-03-30T16:09:00Z</time></trkpt><trkpt lat="43.31321324489243" lon="10.510678954078113"><ele>5.571428571428572</ele><time>2026-03-30T16:09:04Z</time></trkpt><trkpt lat="43.31318999558723" lon="10.510577055329074"><ele>4.714285714285714</ele><time>2026-03-30T16:09:09Z</time></trkpt><trkpt lat="43.313166934961586" lon="10.510489715644383"><ele>3.8571428571428568</ele><time>2026-03-30T16:09:13Z</time></trkpt><trkpt lat="43.31314906098267" lon="10.510395817412972"><ele>3.0</ele><time>2026-03-30T16:09:17Z</time></trkpt><trkpt lat="43.31312913560319" lon="10.510299293733315"><ele>2.9999999999999996</ele><time>2026-03-30T16:09:21Z</time></trkpt><trkpt lat="43.31311521651219" lon="10.510206132870143"><ele>3.0</ele><time>2026-03-30T16:09:25Z</time></trkpt><trkpt lat="43.31309753153599" lon="10.510116017130226"><ele>3.0</ele><time>2026-03-30T16:09:29Z</time></trkpt><trkpt lat="43.31308252277056" lon="10.510024038890682"><ele>3.0</ele><time>2026-03-30T16:09:33Z</time></trkpt><trkpt lat="43.31306177607442" lon="10.50993581400708"><ele>3.0</ele><time>2026-03-30T16:09:37Z</time></trkpt><trkpt lat="43.313046595638596" lon="10.5098446924806"><ele>2.9999999999999996</ele><time>2026-03-30T16:09:41Z</time></trkpt><trkpt lat="43.31303312237256" lon="10.509756327336468"><ele>3.0</ele><time>2026-03-30T16:09:45Z</time></trkpt><trkpt lat="43.3130191743237" lon="10.50966651425894"><ele>3.1428571428571423</ele><time>2026-03-30T16:09:49Z</time></trkpt><trkpt lat="43.31299504534222" lon="10.509569595472012"><ele>3.2857142857142856</ele><time>2026-03-30T16:09:53Z</time></trkpt><trkpt lat="43.312971042002346" lon="10.509474212226019"><ele>3.4285714285714284</ele><time>2026-03-30T16:09:57Z</time></trkpt><trkpt lat="43.31296435011609" lon="10.509372181658003"><ele>3.571428571428571</ele><time>2026-03-30T16:10:02Z</time></trkpt><trkpt lat="43.312944291865136" lon="10.509268787516909"><ele>3.714285714285714</ele><time>2026-03-30T16:10:07Z</time></trkpt><trkpt lat="43.31292097710703" lon="10.50918394294444"><ele>3.8571428571428568</ele><time>2026-03-30T16:10:11Z</time></trkpt><trkpt lat="43.31290025980684" lon="10.509095523736883"><ele>4.0</ele><time>2026-03-30T16:10:15Z</time></trkpt><trkpt lat="43.3128604020613" lon="10.509025486459093"><ele>4.0</ele><time>2026-03-30T16:10:23Z</time></trkpt><trkpt lat="43.31285064239986" lon="10.508914691681785"><ele>3.9999999999999996</ele><time>2026-03-30T16:10:42.7Z</time></trkpt><trkpt lat="43.312848340737055" lon="10.508805904188472"><ele>4.0</ele><time>2026-03-30T16:10:48.4Z</time></trkpt><trkpt lat="43.31283117144409" lon="10.508706493350116"><ele>4.0</ele><time>2026-03-30T16:10:52.2Z</time></trkpt><trkpt lat="43.31281611879469" lon="10.508622130673668"><ele>3.9999999999999996</ele><time>2026-03-30T16:10:56Z</time></trkpt><trkpt lat="43.312803078327455" lon="10.508533223655757"><ele>4.0</ele><time>2026-03-30T16:11:00Z</time></trkpt><trkpt lat="43.31279505173286" lon="10.50844223726154"><ele>4.0</ele><time>2026-03-30T16:11:04Z</time></trkpt><trkpt lat="43.312781432848496" lon="10.508351793689071"><ele>3.8571428571428568</ele><time>2026-03-30T16:11:08Z</time></trkpt><trkpt lat="43.312771991417335" lon="10.508258335914583"><ele>3.714285714285714</ele><time>2026-03-30T16:11:12Z</time></trkpt><trkpt lat="43.31276632142118" lon="10.508167533439497"><ele>3.571428571428571</ele><time>2026-03-30T16:11:16Z</time></trkpt><trkpt lat="43.31275604852933" lon="10.508074524843456"><ele>3.4285714285714284</ele><time>2026-03-30T16:11:20Z</time></trkpt><trkpt lat="43.31275118271513" lon="10.507980842319705"><ele>3.2857142857142856</ele><time>2026-03-30T16:11:24Z</time></trkpt><trkpt lat="43.31274575230334" lon="10.507890596525614"><ele>3.1428571428571423</ele><time>2026-03-30T16:11:28Z</time></trkpt><trkpt lat="43.31274238048782" lon="10.50780132230621"><ele>3.0</ele><time>2026-03-30T16:11:32Z</time></trkpt><trkpt lat="43.31274341743083" lon="10.507714523520104"><ele>2.8571428571428568</ele><time>2026-03-30T16:11:36Z</time></trkpt><trkpt lat="43.31273966605918" lon="10.507623076696165"><ele>2.7142857142857144</ele><time>2026-03-30T16:11:40Z</time></trkpt><trkpt lat="43.312738882071336" lon="10.507535270958552"><ele>2.571428571428571</ele><time>2026-03-30T16:11:44Z</time></trkpt><trkpt lat="43.31273835515675" lon="10.50743777151676"><ele>2.4285714285714284</ele><time>2026-03-30T16:11:48Z</time></trkpt><trkpt lat="43.31273451495822" lon="10.507340174119358"><ele>2.2857142857142856</ele><time>2026-03-30T16:11:52Z</time></trkpt><trkpt lat="43.31273197346337" lon="10.507243856495547"><ele>2.142857142857143</ele><time>2026-03-30T16:11:56Z</time></trkpt><trkpt lat="43.312730770495705" lon="10.507150913192776"><ele>2.0</ele><time>2026-03-30T16:12:00Z</time></trkpt><trkpt lat="43.312731366695196" lon="10.507054784077736"><ele>2.0</ele><time>2026-03-30T16:12:04Z</time></trkpt><trkpt lat="43.31273353310598" lon="10.506961841100665"><ele>1.9999999999999998</ele><time>2026-03-30T16:12:08Z</time></trkpt><trkpt lat="43.31273317998591" lon="10.506869442836877"><ele>2.0</ele><time>2026-03-30T16:12:12Z</time></trkpt><trkpt lat="43.312738904231686" lon="10.506780419391468"><ele>2.0</ele><time>2026-03-30T16:12:16Z</time></trkpt><trkpt lat="43.3127340598569" lon="10.506689569238523"><ele>1.9999999999999998</ele><time>2026-03-30T16:12:20Z</time></trkpt><trkpt lat="43.31273487586389" lon="10.50659328830906"><ele>2.0</ele><time>2026-03-30T16:12:24Z</time></trkpt><trkpt lat="43.31273442160906" lon="10.506497498859257"><ele>2.0</ele><time>2026-03-30T16:12:28Z</time></trkpt><trkpt lat="43.312731335826214" lon="10.506399820826868"><ele>2.0</ele><time>2026-03-30T16:12:32Z</time></trkpt><trkpt lat="43.312733432249225" lon="10.506301772308598"><ele>1.9999999999999998</ele><time>2026-03-30T16:12:36Z</time></trkpt><trkpt lat="43.31273364380113" lon="10.506205821534392"><ele>2.0</ele><time>2026-03-30T16:12:40Z</time></trkpt><trkpt lat="43.31273348295795" lon="10.506112963717925"><ele>2.0</ele><time>2026-03-30T16:12:44Z</time></trkpt><trkpt lat="43.31273388970627" lon="10.506021085287813"><ele>1.9999999999999998</ele><time>2026-03-30T16:12:48Z</time></trkpt><trkpt lat="43.31274175289666" lon="10.505930126122163"><ele>2.0</ele><time>2026-03-30T16:12:52Z</time></trkpt><trkpt lat="43.312741536932016" lon="10.505837580855829"><ele>2.0</ele><time>2026-03-30T16:12:56Z</time></trkpt><trkpt lat="43.312736438671465" lon="10.505743459758229"><ele>2.0</ele><time>2026-03-30T16:13:00Z</time></trkpt><trkpt lat="43.31272777521391" lon="10.505645977606255"><ele>1.9999999999999998</ele><time>2026-03-30T16:13:04Z</time></trkpt><trkpt lat="43.31271494619402" lon="10.505549304785378"><ele>2.0</ele><time>2026-03-30T16:13:08Z</time></trkpt><trkpt lat="43.31270844007734" lon="10.505450960453347"><ele>2.0</ele><time>2026-03-30T16:13:12Z</time></trkpt><trkpt lat="43.31269953163589" lon="10.505355470891294"><ele>1.9999999999999998</ele><time>2026-03-30T16:13:16Z</time></trkpt><trkpt lat="43.312685328135785" lon="10.505266310459227"><ele>2.0</ele><time>2026-03-30T16:13:20Z</time></trkpt><trkpt lat="43.31267105205779" lon="10.505173251139464"><ele>2.0</ele><time>2026-03-30T16:13:24Z</time></trkpt><trkpt lat="43.312651758911606" lon="10.505090247290315"><ele>2.142857142857143</ele><time>2026-03-30T16:13:28Z</time></trkpt><trkpt lat="43.31262479764564" lon="10.50500070052993"><ele>2.2857142857142856</ele><time>2026-03-30T16:13:32Z</time></trkpt><trkpt lat="43.31260039500449" lon="10.50491077057808"><ele>2.4285714285714284</ele><time>2026-03-30T16:13:36Z</time></trkpt><trkpt lat="43.31257848263755" lon="10.504822883822326"><ele>2.571428571428571</ele><time>2026-03-30T16:13:40Z</time></trkpt><trkpt lat="43.31254877726932" lon="10.504736286901927"><ele>2.7142857142857144</ele><time>2026-03-30T16:13:44Z</time></trkpt><trkpt lat="43.312522211303104" lon="10.504653161919185"><ele>2.8571428571428568</ele><time>2026-03-30T16:13:48Z</time></trkpt><trkpt lat="43.31249012837841" lon="10.5045668446052"><ele>3.0</ele><time>2026-03-30T16:13:52Z</time></trkpt><trkpt lat="43.3124616955115" lon="10.504477249351938"><ele>3.1428571428571423</ele><time>2026-03-30T16:13:56Z</time></trkpt><trkpt lat="43.312430583927416" lon="10.50438771227107"><ele>3.2857142857142856</ele><time>2026-03-30T16:14:00Z</time></trkpt><trkpt lat="43.312400655676505" lon="10.504299079852856"><ele>3.4285714285714284</ele><time>2026-03-30T16:14:04Z</time></trkpt><trkpt lat="43.312368482407535" lon="10.504216907026239"><ele>3.571428571428571</ele><time>2026-03-30T16:14:08Z</time></trkpt><trkpt lat="43.31233870762325" lon="10.504134887325412"><ele>3.714285714285714</ele><time>2026-03-30T16:14:12Z</time></trkpt><trkpt lat="43.31231282447636" lon="10.504049501593448"><ele>3.8571428571428568</ele><time>2026-03-30T16:14:16Z</time></trkpt><trkpt lat="43.312281132921086" lon="10.503964873117768"><ele>4.0</ele><time>2026-03-30T16:14:20Z</time></trkpt><trkpt lat="43.3122534310561" lon="10.503881428053822"><ele>3.714285714285714</ele><time>2026-03-30T16:14:24Z</time></trkpt><trkpt lat="43.3122208577382" lon="10.503797065867502"><ele>3.428571428571428</ele><time>2026-03-30T16:14:28Z</time></trkpt><trkpt lat="43.31219248643693" lon="10.503710619408803"><ele>3.142857142857143</ele><time>2026-03-30T16:14:32Z</time></trkpt><trkpt lat="43.31216275490204" lon="10.503626734772116"><ele>2.8571428571428568</ele><time>2026-03-30T16:14:36Z</time></trkpt><trkpt lat="43.31213206786607" lon="10.503545067072192"><ele>2.571428571428571</ele><time>2026-03-30T16:14:40Z</time></trkpt><trkpt lat="43.31210573649241" lon="10.503461603359652"><ele>2.2857142857142856</ele><time>2026-03-30T16:14:44Z</time></trkpt><trkpt lat="43.31207733994736" lon="10.503378836393809"><ele>2.0</ele><time>2026-03-30T16:14:48Z</time></trkpt><trkpt lat="43.312053272576485" lon="10.503293824980389"><ele>2.0</ele><time>2026-03-30T16:14:52Z</time></trkpt><trkpt lat="43.31202476333514" lon="10.503209085957554"><ele>1.9999999999999998</ele><time>2026-03-30T16:14:56Z</time></trkpt><trkpt lat="43.3119940360838" lon="10.503125073106231"><ele>2.0</ele><time>2026-03-30T16:15:00Z</time></trkpt><trkpt lat="43.31195920591157" lon="10.503044104358692"><ele>2.0</ele><time>2026-03-30T16:15:04Z</time></trkpt><trkpt lat="43.311922231230305" lon="10.502960882520956"><ele>1.9999999999999998</ele><time>2026-03-30T16:15:08Z</time></trkpt><trkpt lat="43.31188381549032" lon="10.502878709655832"><ele>2.0</ele><time>2026-03-30T16:15:12Z</time></trkpt><trkpt lat="43.31185556349872" lon="10.502795048843135"><ele>2.0</ele><time>2026-03-30T16:15:16Z</time></trkpt><trkpt lat="43.31182026091497" lon="10.50272241145522"><ele>2.0</ele><time>2026-03-30T16:15:20Z</time></trkpt><trkpt lat="43.311768860380816" lon="10.50263148708414"><ele>1.9999999999999998</ele><time>2026-03-30T16:15:25Z</time></trkpt><trkpt lat="43.311729848991874" lon="10.502563175880251"><ele>2.0</ele><time>2026-03-30T16:15:29Z</time></trkpt><trkpt lat="43.31168456530387" lon="10.50249241554359"><ele>2.0</ele><time>2026-03-30T16:15:33Z</time></trkpt><trkpt lat="43.311639033886784" lon="10.502422559851256"><ele>1.9999999999999998</ele><time>2026-03-30T16:15:37Z</time></trkpt><trkpt lat="43.311590522796706" lon="10.502356194441328"><ele>2.0</ele><time>2026-03-30T16:15:41Z</time></trkpt><trkpt lat="43.31153546090221" lon="10.502302373416132"><ele>2.0</ele><time>2026-03-30T16:15:45Z</time></trkpt><trkpt lat="43.31148635287429" lon="10.502236145065703"><ele>2.0</ele><time>2026-03-30T16:15:49Z</time></trkpt><trkpt lat="43.31143676576487" lon="10.50217903540423"><ele>1.9999999999999998</ele><time>2026-03-30T16:15:53Z</time></trkpt><trkpt lat="43.31137704682469" lon="10.502129139485442"><ele>2.0</ele><time>2026-03-30T16:15:57Z</time></trkpt><trkpt lat="43.31132303915706" lon="10.502069992710288"><ele>2.0</ele><time>2026-03-30T16:16:01Z</time></trkpt><trkpt lat="43.31126278059561" lon="10.502022945726281"><ele>1.9999999999999998</ele><time>2026-03-30T16:16:05Z</time></trkpt><trkpt lat="43.31120022226625" lon="10.501977592944872"><ele>2.0</ele><time>2026-03-30T16:16:09Z</time></trkpt><trkpt lat="43.31113388193837" lon="10.501941697240483"><ele>2.0</ele><time>2026-03-30T16:16:13Z</time></trkpt><trkpt lat="43.311076343473175" lon="10.501894460693066"><ele>2.0</ele><time>2026-03-30T16:16:17Z</time></trkpt><trkpt lat="43.31100908399894" lon="10.501838464931843"><ele>1.9999999999999998</ele><time>2026-03-30T16:16:22Z</time></trkpt><trkpt lat="43.310946115704766" lon="10.501802297162714"><ele>2.0</ele><time>2026-03-30T16:16:26Z</time></trkpt><trkpt lat="43.31088438733039" lon="10.501765943469248"><ele>2.0</ele><time>2026-03-30T16:16:30Z</time></trkpt><trkpt lat="43.31081789867146" lon="10.501734722741283"><ele>1.9999999999999998</ele><time>2026-03-30T16:16:34Z</time></trkpt><trkpt lat="43.31074644742083" lon="10.501703710529377"><ele>2.0</ele><time>2026-03-30T16:16:38Z</time></trkpt><trkpt lat="43.310676336406985" lon="10.501669728942394"><ele>2.0</ele><time>2026-03-30T16:16:42Z</time></trkpt><trkpt lat="43.310609298399484" lon="10.501615698172452"><ele>1.857142857142857</ele><time>2026-03-30T16:16:47Z</time></trkpt><trkpt lat="43.31054100205894" lon="10.501564705203"><ele>1.714285714285714</ele><time>2026-03-30T16:16:52Z</time></trkpt><trkpt lat="43.31048258449217" lon="10.501525092745258"><ele>1.5714285714285714</ele><time>2026-03-30T16:16:56Z</time></trkpt><trkpt lat="43.31042473977897" lon="10.501487433592501"><ele>1.4285714285714284</ele><time>2026-03-30T16:17:00Z</time></trkpt><trkpt lat="43.31035684669102" lon="10.501437467916793"><ele>1.2857142857142856</ele><time>2026-03-30T16:17:05Z</time></trkpt><trkpt lat="43.31028714916083" lon="10.501389244219414"><ele>1.1428571428571428</ele><time>2026-03-30T16:17:10Z</time></trkpt><trkpt lat="43.31022374404342" lon="10.501369214232547"><ele>1.0</ele><time>2026-03-30T16:17:14Z</time></trkpt><trkpt lat="43.31013864020483" lon="10.50135526655063"><ele>1.0</ele><time>2026-03-30T16:17:18Z</time></trkpt><trkpt lat="43.31007197505879" lon="10.501332834928226"><ele>0.9999999999999999</ele><time>2026-03-30T16:17:21Z</time></trkpt><trkpt lat="43.310002880221724" lon="10.501302520818848"><ele>1.0</ele><time>2026-03-30T16:17:25Z</time></trkpt><trkpt lat="43.30993718094729" lon="10.501266659188152"><ele>1.0</ele><time>2026-03-30T16:17:29Z</time></trkpt><trkpt lat="43.309869183473324" lon="10.501232828269645"><ele>0.9999999999999999</ele><time>2026-03-30T16:17:33Z</time></trkpt><trkpt lat="43.30980586903459" lon="10.501204649916929"><ele>1.0</ele><time>2026-03-30T16:17:37Z</time></trkpt><trkpt lat="43.309735869407156" lon="10.501158977344808"><ele>1.0</ele><time>2026-03-30T16:17:42Z</time></trkpt><trkpt lat="43.30967884615567" lon="10.501115784629238"><ele>1.0</ele><time>2026-03-30T16:17:46Z</time></trkpt><trkpt lat="43.30962192960404" lon="10.501075488458003"><ele>0.9999999999999999</ele><time>2026-03-30T16:17:50Z</time></trkpt><trkpt lat="43.30955581237393" lon="10.501040330227651"><ele>1.0</ele><time>2026-03-30T16:17:54Z</time></trkpt><trkpt lat="43.309493088874895" lon="10.501014622234898"><ele>1.0</ele><time>2026-03-30T16:17:58Z</time></trkpt><trkpt lat="43.30942992438255" lon="10.500977791899347"><ele>0.9999999999999999</ele><time>2026-03-30T16:18:02Z</time></trkpt><trkpt lat="43.30936432654745" lon="10.500945104821037"><ele>1.0</ele><time>2026-03-30T16:18:06Z</time></trkpt><trkpt lat="43.30929798344465" lon="10.500911349187216"><ele>1.0</ele><time>2026-03-30T16:18:10Z</time></trkpt><trkpt lat="43.30923533373157" lon="10.500877351358866"><ele>1.0</ele><time>2026-03-30T16:18:14Z</time></trkpt><trkpt lat="43.309173366605016" lon="10.50084579678664"><ele>0.9999999999999999</ele><time>2026-03-30T16:18:18Z</time></trkpt><trkpt lat="43.30911051862912" lon="10.50081387563917"><ele>1.0</ele><time>2026-03-30T16:18:22Z</time></trkpt><trkpt lat="43.3090469762853" lon="10.500779166769448"><ele>1.0</ele><time>2026-03-30T16:18:26Z</time></trkpt><trkpt lat="43.30898438751724" lon="10.500746477839854"><ele>0.9999999999999999</ele><time>2026-03-30T16:18:30Z</time></trkpt><trkpt lat="43.308919058606904" lon="10.500720401130152"><ele>1.0</ele><time>2026-03-30T16:18:34Z</time></trkpt><trkpt lat="43.308856829138726" lon="10.500681452309937"><ele>1.0</ele><time>2026-03-30T16:18:38Z</time></trkpt><trkpt lat="43.308795373296306" lon="10.500636838354326"><ele>1.0</ele><time>2026-03-30T16:18:42Z</time></trkpt><trkpt lat="43.3087325300007" lon="10.500592118334996"><ele>0.9999999999999999</ele><time>2026-03-30T16:18:46Z</time></trkpt><trkpt lat="43.30866848436204" lon="10.500557246669802"><ele>1.0</ele><time>2026-03-30T16:18:50Z</time></trkpt><trkpt lat="43.308608180383395" lon="10.500517470478364"><ele>1.0</ele><time>2026-03-30T16:18:54Z</time></trkpt><trkpt lat="43.30854797459915" lon="10.50047388683033"><ele>0.9999999999999999</ele><time>2026-03-30T16:18:58Z</time></trkpt><trkpt lat="43.308489972462" lon="10.50043309215878"><ele>1.0</ele><time>2026-03-30T16:19:02Z</time></trkpt><trkpt lat="43.308430094211126" lon="10.500392040482856"><ele>1.0</ele><time>2026-03-30T16:19:06Z</time></trkpt><trkpt lat="43.30837224925399" lon="10.500342072656176"><ele>1.0</ele><time>2026-03-30T16:19:10Z</time></trkpt><trkpt lat="43.30831331250253" lon="10.500298961864328"><ele>0.9999999999999999</ele><time>2026-03-30T16:19:14Z</time></trkpt><trkpt lat="43.308257222419286" lon="10.500251621651298"><ele>1.0</ele><time>2026-03-30T16:19:18Z</time></trkpt><trkpt lat="43.30819942325239" lon="10.500201402179702"><ele>1.0</ele><time>2026-03-30T16:19:22Z</time></trkpt><trkpt lat="43.308141397827285" lon="10.50015326037902"><ele>0.9999999999999999</ele><time>2026-03-30T16:19:26Z</time></trkpt><trkpt lat="43.30808462561357" lon="10.500102847037931"><ele>1.0</ele><time>2026-03-30T16:19:30Z</time></trkpt><trkpt lat="43.308029471944934" lon="10.50005250529934"><ele>1.0</ele><time>2026-03-30T16:19:34Z</time></trkpt><trkpt lat="43.307973582106236" lon="10.50000298454954"><ele>1.0</ele><time>2026-03-30T16:19:38Z</time></trkpt><trkpt lat="43.3079156301495" lon="10.499959928785477"><ele>0.9999999999999999</ele><time>2026-03-30T16:19:42Z</time></trkpt><trkpt lat="43.30786167328803" lon="10.499912405997526"><ele>1.0</ele><time>2026-03-30T16:19:46Z</time></trkpt><trkpt lat="43.30780458117749" lon="10.499866723147681"><ele>1.0</ele><time>2026-03-30T16:19:50Z</time></trkpt><trkpt lat="43.30774575643046" lon="10.499820185946067"><ele>0.9999999999999999</ele><time>2026-03-30T16:19:54Z</time></trkpt><trkpt lat="43.30768812078738" lon="10.499768877437148"><ele>1.0</ele><time>2026-03-30T16:19:58Z</time></trkpt><trkpt lat="43.30763301961076" lon="10.49972249061877"><ele>1.0</ele><time>2026-03-30T16:20:02Z</time></trkpt><trkpt lat="43.307578667958296" lon="10.499673942633132"><ele>1.0</ele><time>2026-03-30T16:20:06Z</time></trkpt><trkpt lat="43.30752036680794" lon="10.499623398081175"><ele>0.9999999999999999</ele><time>2026-03-30T16:20:10Z</time></trkpt><trkpt lat="43.30746393143121" lon="10.499575575869526"><ele>1.0</ele><time>2026-03-30T16:20:14Z</time></trkpt><trkpt lat="43.30740689003826" lon="10.499523449260751"><ele>1.0</ele><time>2026-03-30T16:20:18Z</time></trkpt><trkpt lat="43.3073457264081" lon="10.499474165410328"><ele>0.9999999999999999</ele><time>2026-03-30T16:20:22Z</time></trkpt><trkpt lat="43.30728909988522" lon="10.499424343461703"><ele>1.0</ele><time>2026-03-30T16:20:26Z</time></trkpt><trkpt lat="43.307234283193154" lon="10.4993735696165"><ele>1.0</ele><time>2026-03-30T16:20:30Z</time></trkpt><trkpt lat="43.30717443975107" lon="10.499312420166973"><ele>1.0</ele><time>2026-03-30T16:20:35Z</time></trkpt><trkpt lat="43.30711169363421" lon="10.499258279321783"><ele>0.9999999999999999</ele><time>2026-03-30T16:20:40Z</time></trkpt><trkpt lat="43.307042898059194" lon="10.499214990076602"><ele>1.0</ele><time>2026-03-30T16:20:45Z</time></trkpt><trkpt lat="43.30697544864596" lon="10.499159281643827"><ele>1.0</ele><time>2026-03-30T16:20:50Z</time></trkpt><trkpt lat="43.30692396597546" lon="10.499100042625301"><ele>0.9999999999999999</ele><time>2026-03-30T16:20:54Z</time></trkpt><trkpt lat="43.30686308881658" lon="10.49904741148339"><ele>1.0</ele><time>2026-03-30T16:20:58Z</time></trkpt><trkpt lat="43.30680489769785" lon="10.498979023644802"><ele>1.0</ele><time>2026-03-30T16:21:02Z</time></trkpt><trkpt lat="43.30674414720245" lon="10.498924197856057"><ele>1.0</ele><time>2026-03-30T16:21:06Z</time></trkpt><trkpt lat="43.306683976220334" lon="10.498874798009542"><ele>0.9999999999999999</ele><time>2026-03-30T16:21:10Z</time></trkpt><trkpt lat="43.306619845626926" lon="10.498826736733493"><ele>1.0</ele><time>2026-03-30T16:21:14Z</time></trkpt><trkpt lat="43.3065620584615" lon="10.498771962742332"><ele>1.0</ele><time>2026-03-30T16:21:18Z</time></trkpt><trkpt lat="43.30650286234535" lon="10.498723205516567"><ele>0.9999999999999999</ele><time>2026-03-30T16:21:22Z</time></trkpt><trkpt lat="43.306441248029465" lon="10.498674981417157"><ele>1.0</ele><time>2026-03-30T16:21:26Z</time></trkpt><trkpt lat="43.306378577224955" lon="10.49863641779118"><ele>1.0</ele><time>2026-03-30T16:21:30Z</time></trkpt><trkpt lat="43.30632493970111" lon="10.498585674941236"><ele>1.2857142857142856</ele><time>2026-03-30T16:21:34Z</time></trkpt><trkpt lat="43.306269379633996" lon="10.498534721027559"><ele>1.5714285714285712</ele><time>2026-03-30T16:21:38Z</time></trkpt><trkpt lat="43.306217600647216" lon="10.49848040754157"><ele>1.857142857142857</ele><time>2026-03-30T16:21:42Z</time></trkpt><trkpt lat="43.30616146310701" lon="10.498432807790277"><ele>2.142857142857143</ele><time>2026-03-30T16:21:46Z</time></trkpt><trkpt lat="43.306104082877035" lon="10.49838291406457"><ele>2.4285714285714284</ele><time>2026-03-30T16:21:50Z</time></trkpt><trkpt lat="43.306047328230314" lon="10.498332604518508"><ele>2.714285714285714</ele><time>2026-03-30T16:21:54Z</time></trkpt><trkpt lat="43.30598649293976" lon="10.498281203454114"><ele>3.0</ele><time>2026-03-30T16:21:58Z</time></trkpt><trkpt lat="43.30592892910423" lon="10.4982339374052"><ele>2.9999999999999996</ele><time>2026-03-30T16:22:02Z</time></trkpt><trkpt lat="43.30587077892466" lon="10.498185501745823"><ele>3.0</ele><time>2026-03-30T16:22:06Z</time></trkpt><trkpt lat="43.30581155974278" lon="10.49813607402107"><ele>3.0</ele><time>2026-03-30T16:22:10Z</time></trkpt><trkpt lat="43.30575162038885" lon="10.498076507742091"><ele>3.0</ele><time>2026-03-30T16:22:14Z</time></trkpt><trkpt lat="43.30569495048738" lon="10.498026429610356"><ele>3.0</ele><time>2026-03-30T16:22:18Z</time></trkpt><trkpt lat="43.305638344384036" lon="10.497958024819315"><ele>2.9999999999999996</ele><time>2026-03-30T16:22:23Z</time></trkpt><trkpt lat="43.305577652181896" lon="10.497910759562822"><ele>3.0</ele><time>2026-03-30T16:22:28Z</time></trkpt><trkpt lat="43.30552004417999" lon="10.497840542381889"><ele>2.8571428571428568</ele><time>2026-03-30T16:22:34Z</time></trkpt><trkpt lat="43.305465486394546" lon="10.497788785033958"><ele>2.7142857142857144</ele><time>2026-03-30T16:22:38Z</time></trkpt><trkpt lat="43.305410447062265" lon="10.49774447464756"><ele>2.571428571428571</ele><time>2026-03-30T16:22:42Z</time></trkpt><trkpt lat="43.30534399400589" lon="10.497712802389133"><ele>2.4285714285714284</ele><time>2026-03-30T16:22:46Z</time></trkpt><trkpt lat="43.30529402347633" lon="10.497650917897525"><ele>2.2857142857142856</ele><time>2026-03-30T16:22:50Z</time></trkpt><trkpt lat="43.30522942290671" lon="10.497606539146153"><ele>2.142857142857143</ele><time>2026-03-30T16:22:54Z</time></trkpt><trkpt lat="43.3051661068967" lon="10.497553482930133"><ele>2.0</ele><time>2026-03-30T16:22:58Z</time></trkpt><trkpt lat="43.3050983512307" lon="10.497504272600327"><ele>2.0</ele><time>2026-03-30T16:23:02Z</time></trkpt><trkpt lat="43.30503589720599" lon="10.497447182040274"><ele>1.9999999999999998</ele><time>2026-03-30T16:23:06Z</time></trkpt><trkpt lat="43.30497435037346" lon="10.497391930665835"><ele>2.0</ele><time>2026-03-30T16:23:10Z</time></trkpt><trkpt lat="43.304915685815224" lon="10.497328195283222"><ele>2.0</ele><time>2026-03-30T16:23:14Z</time></trkpt><trkpt lat="43.3048580332487" lon="10.49726581950855"><ele>1.9999999999999998</ele><time>2026-03-30T16:23:18Z</time></trkpt><trkpt lat="43.30480039813043" lon="10.497209211328492"><ele>2.0</ele><time>2026-03-30T16:23:22Z</time></trkpt><trkpt lat="43.304743296593095" lon="10.497157451353408"><ele>2.0</ele><time>2026-03-30T16:23:26Z</time></trkpt><trkpt lat="43.30469427853038" lon="10.497100456607996"><ele>2.4285714285714284</ele><time>2026-03-30T16:23:30Z</time></trkpt><trkpt lat="43.30464076595412" lon="10.497034279812794"><ele>2.8571428571428568</ele><time>2026-03-30T16:23:34Z</time></trkpt><trkpt lat="43.304589284225024" lon="10.49696657125361"><ele>3.2857142857142856</ele><time>2026-03-30T16:23:38Z</time></trkpt><trkpt lat="43.30453726637013" lon="10.496900994855448"><ele>3.7142857142857144</ele><time>2026-03-30T16:23:42Z</time></trkpt><trkpt lat="43.3044854198845" lon="10.496835992293676"><ele>4.142857142857143</ele><time>2026-03-30T16:23:46Z</time></trkpt><trkpt lat="43.30443548481453" lon="10.496773957356732"><ele>4.571428571428571</ele><time>2026-03-30T16:23:50Z</time></trkpt><trkpt lat="43.30438723509321" lon="10.496710389277789"><ele>5.0</ele><time>2026-03-30T16:23:54Z</time></trkpt><trkpt lat="43.30433010293058" lon="10.496638857756285"><ele>5.0</ele><time>2026-03-30T16:23:59Z</time></trkpt><trkpt lat="43.304283149534946" lon="10.496575996930817"><ele>5.0</ele><time>2026-03-30T16:24:03Z</time></trkpt><trkpt lat="43.30423771671038" lon="10.496505733900491"><ele>5.0</ele><time>2026-03-30T16:24:07Z</time></trkpt><trkpt lat="43.304197184112844" lon="10.49643546890289"><ele>5.0</ele><time>2026-03-30T16:24:11Z</time></trkpt><trkpt lat="43.304153582340895" lon="10.496343682276988"><ele>5.0</ele><time>2026-03-30T16:24:16Z</time></trkpt><trkpt lat="43.30411248412603" lon="10.496264987411331"><ele>5.0</ele><time>2026-03-30T16:24:21Z</time></trkpt><trkpt lat="43.30407024272833" lon="10.496177348958179"><ele>5.0</ele><time>2026-03-30T16:24:26Z</time></trkpt><trkpt lat="43.30402902328013" lon="10.496108869295435"><ele>4.857142857142857</ele><time>2026-03-30T16:24:31Z</time></trkpt><trkpt lat="43.30398099961509" lon="10.496018121209033"><ele>4.714285714285714</ele><time>2026-03-30T16:24:35Z</time></trkpt><trkpt lat="43.303939866024535" lon="10.495936849126622"><ele>4.571428571428571</ele><time>2026-03-30T16:24:39Z</time></trkpt><trkpt lat="43.303893986278965" lon="10.495852968146789"><ele>4.428571428571429</ele><time>2026-03-30T16:24:43Z</time></trkpt><trkpt lat="43.303853998897125" lon="10.495766953289529"><ele>4.285714285714286</ele><time>2026-03-30T16:24:47Z</time></trkpt><trkpt lat="43.303810367411984" lon="10.495688101110265"><ele>4.142857142857142</ele><time>2026-03-30T16:24:51Z</time></trkpt><trkpt lat="43.303774259574666" lon="10.49561072158194"><ele>4.0</ele><time>2026-03-30T16:24:55Z</time></trkpt><trkpt lat="43.303736646195354" lon="10.49553032163218"><ele>4.0</ele><time>2026-03-30T16:24:59Z</time></trkpt><trkpt lat="43.30369931232439" lon="10.49545454213645"><ele>3.9999999999999996</ele><time>2026-03-30T16:25:03Z</time></trkpt><trkpt lat="43.30366822871277" lon="10.495373978820774"><ele>4.0</ele><time>2026-03-30T16:25:07Z</time></trkpt><trkpt lat="43.30364234093085" lon="10.495292997545333"><ele>4.0</ele><time>2026-03-30T16:25:11Z</time></trkpt><trkpt lat="43.30361790565304" lon="10.495211256777075"><ele>3.9999999999999996</ele><time>2026-03-30T16:25:15Z</time></trkpt><trkpt lat="43.30358399076678" lon="10.49511654015235"><ele>4.0</ele><time>2026-03-30T16:25:20Z</time></trkpt><trkpt lat="43.303556895313996" lon="10.495029564709965"><ele>4.0</ele><time>2026-03-30T16:25:24Z</time></trkpt><trkpt lat="43.30353806467879" lon="10.49494585803229"><ele>3.8571428571428568</ele><time>2026-03-30T16:25:28Z</time></trkpt><trkpt lat="43.30351279143736" lon="10.494847961658818"><ele>3.714285714285714</ele><time>2026-03-30T16:25:33Z</time></trkpt><trkpt lat="43.30349156013026" lon="10.49475735240507"><ele>3.571428571428571</ele><time>2026-03-30T16:25:37Z</time></trkpt><trkpt lat="43.30347452308965" lon="10.494667307516208"><ele>3.4285714285714284</ele><time>2026-03-30T16:25:41Z</time></trkpt><trkpt lat="43.30345393248879" lon="10.494570613852828"><ele>3.2857142857142856</ele><time>2026-03-30T16:25:45Z</time></trkpt><trkpt lat="43.3034311843476" lon="10.494472463235482"><ele>3.1428571428571423</ele><time>2026-03-30T16:25:49Z</time></trkpt><trkpt lat="43.30340991249616" lon="10.494376433623513"><ele>3.0</ele><time>2026-03-30T16:25:53Z</time></trkpt><trkpt lat="43.303390072368735" lon="10.494287362231946"><ele>2.8571428571428568</ele><time>2026-03-30T16:25:57Z</time></trkpt><trkpt lat="43.303370984703086" lon="10.494191466634142"><ele>2.7142857142857144</ele><time>2026-03-30T16:26:01Z</time></trkpt><trkpt lat="43.30334567551207" lon="10.494092846258827"><ele>2.571428571428571</ele><time>2026-03-30T16:26:06Z</time></trkpt><trkpt lat="43.30332548448304" lon="10.49399109515929"><ele>2.4285714285714284</ele><time>2026-03-30T16:26:11Z</time></trkpt><trkpt lat="43.30330069598057" lon="10.493909286636486"><ele>2.2857142857142856</ele><time>2026-03-30T16:26:16Z</time></trkpt><trkpt lat="43.30333249832785" lon="10.493998269737483"><ele>2.142857142857143</ele><time>2026-03-30T16:26:23Z</time></trkpt><trkpt lat="43.303352782615455" lon="10.494080355756939"><ele>2.0</ele><time>2026-03-30T16:26:27Z</time></trkpt><trkpt lat="43.30336807975707" lon="10.494165283710624"><ele>2.0</ele><time>2026-03-30T16:26:31Z</time></trkpt><trkpt lat="43.30338609552779" lon="10.4942706254578"><ele>1.9999999999999998</ele><time>2026-03-30T16:26:36Z</time></trkpt><trkpt lat="43.30340481990732" lon="10.494357307135818"><ele>2.0</ele><time>2026-03-30T16:26:40Z</time></trkpt><trkpt lat="43.30342096160531" lon="10.494445255739091"><ele>2.0</ele><time>2026-03-30T16:26:44Z</time></trkpt><trkpt lat="43.30343584639722" lon="10.494534460736517"><ele>1.9999999999999998</ele><time>2026-03-30T16:26:48Z</time></trkpt><trkpt lat="43.30345428123231" lon="10.49462187500091"><ele>2.0</ele><time>2026-03-30T16:26:52Z</time></trkpt><trkpt lat="43.30347433278215" lon="10.494707498964225"><ele>2.0</ele><time>2026-03-30T16:26:56Z</time></trkpt><trkpt lat="43.3034940908724" lon="10.494797842918848"><ele>2.142857142857143</ele><time>2026-03-30T16:27:00Z</time></trkpt><trkpt lat="43.30351294886007" lon="10.494890044183439"><ele>2.2857142857142856</ele><time>2026-03-30T16:27:04Z</time></trkpt><trkpt lat="43.30353540020831" lon="10.494976827478634"><ele>2.4285714285714284</ele><time>2026-03-30T16:27:08Z</time></trkpt><trkpt lat="43.303554752286125" lon="10.495063774864965"><ele>2.571428571428571</ele><time>2026-03-30T16:27:12Z</time></trkpt><trkpt lat="43.303582516348" lon="10.495149040685437"><ele>2.7142857142857144</ele><time>2026-03-30T16:27:16Z</time></trkpt><trkpt lat="43.303608851435364" lon="10.495237740609735"><ele>2.8571428571428568</ele><time>2026-03-30T16:27:20Z</time></trkpt><trkpt lat="43.30364008827724" lon="10.495317147603092"><ele>3.0</ele><time>2026-03-30T16:27:24Z</time></trkpt><trkpt lat="43.30367070062649" lon="10.495399882097676"><ele>3.1428571428571423</ele><time>2026-03-30T16:27:28Z</time></trkpt><trkpt lat="43.30370484350412" lon="10.495479267483807"><ele>3.2857142857142856</ele><time>2026-03-30T16:27:32Z</time></trkpt><trkpt lat="43.30374096383305" lon="10.495558672034331"><ele>3.4285714285714284</ele><time>2026-03-30T16:27:36Z</time></trkpt><trkpt lat="43.30377674086473" lon="10.495638477905421"><ele>3.571428571428571</ele><time>2026-03-30T16:27:40Z</time></trkpt><trkpt lat="43.303809807354675" lon="10.495717792476997"><ele>3.714285714285714</ele><time>2026-03-30T16:27:44Z</time></trkpt><trkpt lat="43.30384846159839" lon="10.495801675831768"><ele>3.8571428571428568</ele><time>2026-03-30T16:27:48Z</time></trkpt><trkpt lat="43.303886966009266" lon="10.495884045508275"><ele>4.0</ele><time>2026-03-30T16:27:52Z</time></trkpt><trkpt lat="43.30392539479174" lon="10.495955778545138"><ele>4.0</ele><time>2026-03-30T16:27:56Z</time></trkpt><trkpt lat="43.30396392697516" lon="10.496028833439018"><ele>3.9999999999999996</ele><time>2026-03-30T16:28:00Z</time></trkpt><trkpt lat="43.304000080776206" lon="10.496101706051205"><ele>4.0</ele><time>2026-03-30T16:28:04Z</time></trkpt><trkpt lat="43.304042126168405" lon="10.496166581947335"><ele>4.0</ele><time>2026-03-30T16:28:08Z</time></trkpt><trkpt lat="43.30407891651179" lon="10.496238276650246"><ele>3.9999999999999996</ele><time>2026-03-30T16:28:12Z</time></trkpt><trkpt lat="43.304120758195324" lon="10.496311473930755"><ele>4.0</ele><time>2026-03-30T16:28:16Z</time></trkpt><trkpt lat="43.30416220853302" lon="10.496384321708868"><ele>4.0</ele><time>2026-03-30T16:28:20Z</time></trkpt><trkpt lat="43.304208122259354" lon="10.496450551464555"><ele>4.142857142857142</ele><time>2026-03-30T16:28:24Z</time></trkpt><trkpt lat="43.30425584948685" lon="10.49651530703401"><ele>4.285714285714286</ele><time>2026-03-30T16:28:28Z</time></trkpt><trkpt lat="43.30430144359474" lon="10.49659129458324"><ele>4.428571428571429</ele><time>2026-03-30T16:28:32Z</time></trkpt><trkpt lat="43.30434634862099" lon="10.496654653101427"><ele>4.571428571428571</ele><time>2026-03-30T16:28:36Z</time></trkpt><trkpt lat="43.30439029960867" lon="10.496717070742182"><ele>4.714285714285714</ele><time>2026-03-30T16:28:40Z</time></trkpt><trkpt lat="43.30443254187222" lon="10.49679376738976"><ele>4.857142857142857</ele><time>2026-03-30T16:28:44Z</time></trkpt><trkpt lat="43.30447949158979" lon="10.496858733303089"><ele>5.0</ele><time>2026-03-30T16:28:48Z</time></trkpt><trkpt lat="43.30452470029541" lon="10.49692823863531"><ele>5.0</ele><time>2026-03-30T16:28:52Z</time></trkpt><trkpt lat="43.304578912893966" lon="10.496992873519828"><ele>5.0</ele><time>2026-03-30T16:28:56Z</time></trkpt><trkpt lat="43.30462570674314" lon="10.497068830765416"><ele>5.0</ele><time>2026-03-30T16:29:00Z</time></trkpt><trkpt lat="43.30467980633829" lon="10.497130364600682"><ele>5.0</ele><time>2026-03-30T16:29:04Z</time></trkpt><trkpt lat="43.304734719911366" lon="10.497193452122074"><ele>5.0</ele><time>2026-03-30T16:29:08Z</time></trkpt><trkpt lat="43.30478950227891" lon="10.497249652110286"><ele>5.0</ele><time>2026-03-30T16:29:12Z</time></trkpt><trkpt lat="43.30484361307516" lon="10.497310657283057"><ele>5.0</ele><time>2026-03-30T16:29:16Z</time></trkpt><trkpt lat="43.30489821405862" lon="10.497369791304083"><ele>4.571428571428571</ele><time>2026-03-30T16:29:20Z</time></trkpt><trkpt lat="43.30495270976539" lon="10.49742887429731"><ele>4.142857142857143</ele><time>2026-03-30T16:29:24Z</time></trkpt><trkpt lat="43.305008690678704" lon="10.497481043358968"><ele>3.7142857142857144</ele><time>2026-03-30T16:29:28Z</time></trkpt><trkpt lat="43.30506378091394" lon="10.497533807019703"><ele>3.2857142857142856</ele><time>2026-03-30T16:29:32Z</time></trkpt><trkpt lat="43.30512309905407" lon="10.497583476926248"><ele>2.8571428571428568</ele><time>2026-03-30T16:29:36Z</time></trkpt><trkpt lat="43.30518067453794" lon="10.497636822089383"><ele>2.4285714285714284</ele><time>2026-03-30T16:29:40Z</time></trkpt><trkpt lat="43.30524224231697" lon="10.497687227317217"><ele>2.0</ele><time>2026-03-30T16:29:44Z</time></trkpt><trkpt lat="43.30530339944573" lon="10.497736722962358"><ele>2.0</ele><time>2026-03-30T16:29:48Z</time></trkpt><trkpt lat="43.30536442265724" lon="10.497785011347366"><ele>1.9999999999999998</ele><time>2026-03-30T16:29:52Z</time></trkpt><trkpt lat="43.30542220186145" lon="10.497841504391689"><ele>2.0</ele><time>2026-03-30T16:29:56Z</time></trkpt><trkpt lat="43.305479936769856" lon="10.497896805391402"><ele>2.0</ele><time>2026-03-30T16:30:00Z</time></trkpt><trkpt lat="43.305538944357174" lon="10.497947079131228"><ele>1.9999999999999998</ele><time>2026-03-30T16:30:04Z</time></trkpt><trkpt lat="43.30560510914549" lon="10.497956761367"><ele>2.0</ele><time>2026-03-30T16:30:10Z</time></trkpt><trkpt lat="43.30566093674965" lon="10.498002041318347"><ele>2.0</ele><time>2026-03-30T16:30:14Z</time></trkpt><trkpt lat="43.30572945232165" lon="10.498045892112515"><ele>2.142857142857143</ele><time>2026-03-30T16:30:19Z</time></trkpt><trkpt lat="43.30578074230758" lon="10.498114157462735"><ele>2.2857142857142856</ele><time>2026-03-30T16:30:23Z</time></trkpt><trkpt lat="43.30585058015326" lon="10.498185359873885"><ele>2.4285714285714284</ele><time>2026-03-30T16:30:27Z</time></trkpt><trkpt lat="43.30590882330466" lon="10.498244754134198"><ele>2.571428571428571</ele><time>2026-03-30T16:30:30Z</time></trkpt><trkpt lat="43.30596873427596" lon="10.498297829856623"><ele>2.7142857142857144</ele><time>2026-03-30T16:30:32Z</time></trkpt><trkpt lat="43.3060183133518" lon="10.49836340399672"><ele>2.8571428571428568</ele><time>2026-03-30T16:30:35Z</time></trkpt><trkpt lat="43.30608200746743" lon="10.498410036889243"><ele>3.0</ele><time>2026-03-30T16:30:38Z</time></trkpt><trkpt lat="43.30614413656592" lon="10.498462796872415"><ele>2.9999999999999996</ele><time>2026-03-30T16:30:41Z</time></trkpt><trkpt lat="43.3062058917208" lon="10.498521125844743"><ele>3.0</ele><time>2026-03-30T16:30:44Z</time></trkpt><trkpt lat="43.30627019896075" lon="10.498568313466818"><ele>3.0</ele><time>2026-03-30T16:30:47Z</time></trkpt><trkpt lat="43.30632664664076" lon="10.498620457711791"><ele>3.0</ele><time>2026-03-30T16:30:50Z</time></trkpt><trkpt lat="43.30638235175715" lon="10.498670784228091"><ele>3.0</ele><time>2026-03-30T16:30:53Z</time></trkpt><trkpt lat="43.3064433667494" lon="10.498715250693433"><ele>2.9999999999999996</ele><time>2026-03-30T16:30:56Z</time></trkpt><trkpt lat="43.30650226898842" lon="10.498757581340254"><ele>3.0</ele><time>2026-03-30T16:30:59Z</time></trkpt><trkpt lat="43.30657678474524" lon="10.498820533478572"><ele>2.714285714285714</ele><time>2026-03-30T16:31:03Z</time></trkpt><trkpt lat="43.306634451846364" lon="10.498874197988965"><ele>2.4285714285714284</ele><time>2026-03-30T16:31:06Z</time></trkpt><trkpt lat="43.306692239610925" lon="10.498915705443283"><ele>2.142857142857143</ele><time>2026-03-30T16:31:09Z</time></trkpt><trkpt lat="43.30675275516714" lon="10.498971681128877"><ele>1.857142857142857</ele><time>2026-03-30T16:31:12Z</time></trkpt><trkpt lat="43.30680531499672" lon="10.499021359358295"><ele>1.5714285714285712</ele><time>2026-03-30T16:31:15Z</time></trkpt><trkpt lat="43.30686629025157" lon="10.49906128693619"><ele>1.2857142857142856</ele><time>2026-03-30T16:31:18Z</time></trkpt><trkpt lat="43.30691781507831" lon="10.499112519282255"><ele>1.0</ele><time>2026-03-30T16:31:21Z</time></trkpt><trkpt lat="43.30697202570203" lon="10.499162162997264"><ele>1.0</ele><time>2026-03-30T16:31:24Z</time></trkpt><trkpt lat="43.30702953583295" lon="10.499206175980664"><ele>0.9999999999999999</ele><time>2026-03-30T16:31:27Z</time></trkpt><trkpt lat="43.30708842274481" lon="10.499258011832946"><ele>1.0</ele><time>2026-03-30T16:31:31Z</time></trkpt><trkpt lat="43.30715852200815" lon="10.499309364046482"><ele>1.0</ele><time>2026-03-30T16:31:36Z</time></trkpt><trkpt lat="43.30722273914005" lon="10.499342835791557"><ele>0.9999999999999999</ele><time>2026-03-30T16:31:40Z</time></trkpt><trkpt lat="43.307273995611844" lon="10.49939855866053"><ele>1.0</ele><time>2026-03-30T16:31:43Z</time></trkpt><trkpt lat="43.30733504686675" lon="10.499467731845872"><ele>1.0</ele><time>2026-03-30T16:31:46Z</time></trkpt><trkpt lat="43.307399225864245" lon="10.499526165955526"><ele>1.0</ele><time>2026-03-30T16:31:49Z</time></trkpt><trkpt lat="43.30746391517221" lon="10.49957577333813"><ele>0.9999999999999999</ele><time>2026-03-30T16:31:52Z</time></trkpt><trkpt lat="43.307526804543194" lon="10.499636045587954"><ele>1.0</ele><time>2026-03-30T16:31:55Z</time></trkpt><trkpt lat="43.30758768072561" lon="10.499685660642283"><ele>1.0</ele><time>2026-03-30T16:31:58Z</time></trkpt><trkpt lat="43.30764196019618" lon="10.499736757638795"><ele>0.9999999999999999</ele><time>2026-03-30T16:32:01Z</time></trkpt><trkpt lat="43.30770256586297" lon="10.499786712461601"><ele>1.0</ele><time>2026-03-30T16:32:04Z</time></trkpt><trkpt lat="43.3077569282317" lon="10.499839125061547"><ele>1.0</ele><time>2026-03-30T16:32:07Z</time></trkpt><trkpt lat="43.30781267673867" lon="10.499893025566342"><ele>1.0</ele><time>2026-03-30T16:32:10Z</time></trkpt><trkpt lat="43.307869922293385" lon="10.499938978659394"><ele>0.9999999999999999</ele><time>2026-03-30T16:32:13Z</time></trkpt><trkpt lat="43.307928558116544" lon="10.499984591554034"><ele>1.0</ele><time>2026-03-30T16:32:16Z</time></trkpt><trkpt lat="43.30800078987682" lon="10.50004712815596"><ele>1.0</ele><time>2026-03-30T16:32:20Z</time></trkpt><trkpt lat="43.3080580055519" lon="10.500095013668867"><ele>0.9999999999999999</ele><time>2026-03-30T16:32:23Z</time></trkpt><trkpt lat="43.30811004040673" lon="10.500145187770425"><ele>1.0</ele><time>2026-03-30T16:32:26Z</time></trkpt><trkpt lat="43.3081730727169" lon="10.5001921164084"><ele>1.0</ele><time>2026-03-30T16:32:29Z</time></trkpt><trkpt lat="43.30823867912475" lon="10.500238661066138"><ele>1.0</ele><time>2026-03-30T16:32:32Z</time></trkpt><trkpt lat="43.308295253820305" lon="10.500286632577662"><ele>0.9999999999999999</ele><time>2026-03-30T16:32:35Z</time></trkpt><trkpt lat="43.30835633281001" lon="10.500334631376194"><ele>1.0</ele><time>2026-03-30T16:32:38Z</time></trkpt><trkpt lat="43.30841519783082" lon="10.500383721879322"><ele>1.0</ele><time>2026-03-30T16:32:41Z</time></trkpt><trkpt lat="43.30847640822089" lon="10.500425237097321"><ele>0.9999999999999999</ele><time>2026-03-30T16:32:44Z</time></trkpt><trkpt lat="43.30853789440387" lon="10.500468610553348"><ele>1.0</ele><time>2026-03-30T16:32:47Z</time></trkpt><trkpt lat="43.30860508692678" lon="10.500516217860673"><ele>1.0</ele><time>2026-03-30T16:32:50Z</time></trkpt><trkpt lat="43.30866586792879" lon="10.500553058855587"><ele>1.0</ele><time>2026-03-30T16:32:53Z</time></trkpt><trkpt lat="43.308725681591255" lon="10.500593173944681"><ele>0.9999999999999999</ele><time>2026-03-30T16:32:56Z</time></trkpt><trkpt lat="43.308788416795856" lon="10.500641040501247"><ele>1.0</ele><time>2026-03-30T16:32:59Z</time></trkpt><trkpt lat="43.30885011365843" lon="10.50068373397549"><ele>1.0</ele><time>2026-03-30T16:33:02Z</time></trkpt><trkpt lat="43.30891680901842" lon="10.50071938288266"><ele>0.9999999999999999</ele><time>2026-03-30T16:33:05Z</time></trkpt><trkpt lat="43.3089845718946" lon="10.50075332805565"><ele>1.0</ele><time>2026-03-30T16:33:08Z</time></trkpt><trkpt lat="43.30905192038815" lon="10.500795015573908"><ele>1.0</ele><time>2026-03-30T16:33:11Z</time></trkpt><trkpt lat="43.3091152363246" lon="10.500833343932458"><ele>1.0</ele><time>2026-03-30T16:33:14Z</time></trkpt><trkpt lat="43.30917770351774" lon="10.500870698220957"><ele>0.9999999999999999</ele><time>2026-03-30T16:33:17Z</time></trkpt><trkpt lat="43.30924222859885" lon="10.500900042030976"><ele>1.0</ele><time>2026-03-30T16:33:20Z</time></trkpt><trkpt lat="43.30930252502359" lon="10.500936584362387"><ele>1.0</ele><time>2026-03-30T16:33:23Z</time></trkpt><trkpt lat="43.309365073528554" lon="10.500968745389432"><ele>0.9999999999999999</ele><time>2026-03-30T16:33:26Z</time></trkpt><trkpt lat="43.309426761378255" lon="10.501003052359009"><ele>1.0</ele><time>2026-03-30T16:33:29Z</time></trkpt><trkpt lat="43.309486822627726" lon="10.501034689635347"><ele>1.0</ele><time>2026-03-30T16:33:32Z</time></trkpt><trkpt lat="43.30955328150024" lon="10.501066183617441"><ele>1.0</ele><time>2026-03-30T16:33:35Z</time></trkpt><trkpt lat="43.30961634730501" lon="10.50111007288059"><ele>0.9999999999999999</ele><time>2026-03-30T16:33:38Z</time></trkpt><trkpt lat="43.30968203440527" lon="10.501140377990746"><ele>1.0</ele><time>2026-03-30T16:33:41Z</time></trkpt><trkpt lat="43.309745899469306" lon="10.501174105474938"><ele>1.0</ele><time>2026-03-30T16:33:44Z</time></trkpt><trkpt lat="43.30980759804255" lon="10.501214844531027"><ele>0.9999999999999999</ele><time>2026-03-30T16:33:47Z</time></trkpt><trkpt lat="43.30986908221736" lon="10.50124761567909"><ele>1.0</ele><time>2026-03-30T16:33:50Z</time></trkpt><trkpt lat="43.309936952932055" lon="10.501281525211414"><ele>1.0</ele><time>2026-03-30T16:33:53Z</time></trkpt><trkpt lat="43.31000387977645" lon="10.50131860024143"><ele>1.0</ele><time>2026-03-30T16:33:56Z</time></trkpt><trkpt lat="43.31006938150007" lon="10.501354575418441"><ele>0.9999999999999999</ele><time>2026-03-30T16:33:59Z</time></trkpt><trkpt lat="43.3101356893214" lon="10.501387812485284"><ele>1.0</ele><time>2026-03-30T16:34:02Z</time></trkpt><trkpt lat="43.3101974291289" lon="10.501424488643018"><ele>1.0</ele><time>2026-03-30T16:34:05Z</time></trkpt><trkpt lat="43.310261780140884" lon="10.501456465628982"><ele>0.9999999999999999</ele><time>2026-03-30T16:34:08Z</time></trkpt><trkpt lat="43.31032567405235" lon="10.501488304471865"><ele>1.0</ele><time>2026-03-30T16:34:11Z</time></trkpt><trkpt lat="43.310387027827346" lon="10.501523926533881"><ele>1.0</ele><time>2026-03-30T16:34:14Z</time></trkpt><trkpt lat="43.310446163133555" lon="10.501560353626212"><ele>1.0</ele><time>2026-03-30T16:34:17Z</time></trkpt><trkpt lat="43.310507047225045" lon="10.50159608564425"><ele>0.9999999999999999</ele><time>2026-03-30T16:34:20Z</time></trkpt><trkpt lat="43.31057797883811" lon="10.501635459757157"><ele>1.0</ele><time>2026-03-30T16:34:23Z</time></trkpt><trkpt lat="43.31064394648506" lon="10.501660805483905"><ele>1.0</ele><time>2026-03-30T16:34:26Z</time></trkpt><trkpt lat="43.310706506369456" lon="10.501697909395613"><ele>0.9999999999999999</ele><time>2026-03-30T16:34:29Z</time></trkpt><trkpt lat="43.310771958407365" lon="10.501738845476863"><ele>1.0</ele><time>2026-03-30T16:34:32Z</time></trkpt><trkpt lat="43.310838827168915" lon="10.501770805522758"><ele>1.0</ele><time>2026-03-30T16:34:35Z</time></trkpt><trkpt lat="43.31090359659353" lon="10.50180349899739"><ele>1.1428571428571428</ele><time>2026-03-30T16:34:38Z</time></trkpt><trkpt lat="43.310969772452815" lon="10.501845536245442"><ele>1.2857142857142856</ele><time>2026-03-30T16:34:41Z</time></trkpt><trkpt lat="43.31103668686756" lon="10.501885112824906"><ele>1.4285714285714284</ele><time>2026-03-30T16:34:44Z</time></trkpt><trkpt lat="43.31109840973422" lon="10.50192431420901"><ele>1.5714285714285714</ele><time>2026-03-30T16:34:47Z</time></trkpt><trkpt lat="43.31116072006954" lon="10.501959437917716"><ele>1.714285714285714</ele><time>2026-03-30T16:34:50Z</time></trkpt><trkpt lat="43.31122006460946" lon="10.502004212247716"><ele>1.857142857142857</ele><time>2026-03-30T16:34:53Z</time></trkpt><trkpt lat="43.311284105497364" lon="10.502053711848466"><ele>2.0</ele><time>2026-03-30T16:34:56Z</time></trkpt><trkpt lat="43.31134770863455" lon="10.50210683657571"><ele>2.0</ele><time>2026-03-30T16:34:59Z</time></trkpt><trkpt lat="43.31140880914033" lon="10.5021595007622"><ele>1.9999999999999998</ele><time>2026-03-30T16:35:02Z</time></trkpt><trkpt lat="43.31146200960456" lon="10.50222096193538"><ele>2.0</ele><time>2026-03-30T16:35:05Z</time></trkpt><trkpt lat="43.311518159819336" lon="10.502280984296393"><ele>2.0</ele><time>2026-03-30T16:35:08Z</time></trkpt><trkpt lat="43.31156795895685" lon="10.502348623244007"><ele>1.9999999999999998</ele><time>2026-03-30T16:35:11Z</time></trkpt><trkpt lat="43.31161950629479" lon="10.502414159627241"><ele>2.0</ele><time>2026-03-30T16:35:14Z</time></trkpt><trkpt lat="43.31166811963935" lon="10.502481112899401"><ele>2.0</ele><time>2026-03-30T16:35:17Z</time></trkpt><trkpt lat="43.311713518117216" lon="10.50255032937864"><ele>2.0</ele><time>2026-03-30T16:35:20Z</time></trkpt><trkpt lat="43.31175619969769" lon="10.502624501210732"><ele>1.9999999999999998</ele><time>2026-03-30T16:35:23Z</time></trkpt><trkpt lat="43.311802325259464" lon="10.502694391307246"><ele>2.0</ele><time>2026-03-30T16:35:26Z</time></trkpt><trkpt lat="43.31184144886171" lon="10.502772610497427"><ele>2.0</ele><time>2026-03-30T16:35:29Z</time></trkpt><trkpt lat="43.31188422001855" lon="10.502848793029615"><ele>1.9999999999999998</ele><time>2026-03-30T16:35:32Z</time></trkpt><trkpt lat="43.31191007906812" lon="10.502936533034033"><ele>2.0</ele><time>2026-03-30T16:35:36Z</time></trkpt><trkpt lat="43.31195351859201" lon="10.503033517879906"><ele>2.0</ele><time>2026-03-30T16:35:39Z</time></trkpt><trkpt lat="43.31198905689059" lon="10.50313074168462"><ele>2.0</ele><time>2026-03-30T16:35:42Z</time></trkpt><trkpt lat="43.31202554428957" lon="10.503219977540377"><ele>1.9999999999999998</ele><time>2026-03-30T16:35:45Z</time></trkpt><trkpt lat="43.312049775875224" lon="10.503309242428104"><ele>2.0</ele><time>2026-03-30T16:35:48Z</time></trkpt><trkpt lat="43.31207934121252" lon="10.503394055333358"><ele>2.0</ele><time>2026-03-30T16:35:51Z</time></trkpt><trkpt lat="43.31211422652406" lon="10.503473612717562"><ele>1.9999999999999998</ele><time>2026-03-30T16:35:54Z</time></trkpt><trkpt lat="43.31215027801779" lon="10.503578978755055"><ele>2.0</ele><time>2026-03-30T16:35:58Z</time></trkpt><trkpt lat="43.312179523085234" lon="10.503662049006186"><ele>2.0</ele><time>2026-03-30T16:36:01Z</time></trkpt><trkpt lat="43.31221085567439" lon="10.5037477514119"><ele>2.0</ele><time>2026-03-30T16:36:04Z</time></trkpt><trkpt lat="43.312237779661054" lon="10.503832874938839"><ele>1.9999999999999998</ele><time>2026-03-30T16:36:07Z</time></trkpt><trkpt lat="43.3122692880902" lon="10.503920076059714"><ele>2.0</ele><time>2026-03-30T16:36:10Z</time></trkpt><trkpt lat="43.31230390027432" lon="10.504004246590478"><ele>2.0</ele><time>2026-03-30T16:36:13Z</time></trkpt><trkpt lat="43.312333630375456" lon="10.504091997514161"><ele>1.9999999999999998</ele><time>2026-03-30T16:36:16Z</time></trkpt><trkpt lat="43.31236109429375" lon="10.504175939974616"><ele>2.0</ele><time>2026-03-30T16:36:19Z</time></trkpt><trkpt lat="43.312387897028444" lon="10.504259343928405"><ele>2.0</ele><time>2026-03-30T16:36:22Z</time></trkpt><trkpt lat="43.31242332922052" lon="10.504346305481254"><ele>2.142857142857143</ele><time>2026-03-30T16:36:25Z</time></trkpt><trkpt lat="43.31245158235575" lon="10.504428360209944"><ele>2.2857142857142856</ele><time>2026-03-30T16:36:28Z</time></trkpt><trkpt lat="43.312478652184986" lon="10.50451319119573"><ele>2.4285714285714284</ele><time>2026-03-30T16:36:31Z</time></trkpt><trkpt lat="43.312508056494394" lon="10.504599841696182"><ele>2.571428571428571</ele><time>2026-03-30T16:36:34Z</time></trkpt><trkpt lat="43.31254349168398" lon="10.504677971997122"><ele>2.7142857142857144</ele><time>2026-03-30T16:36:37Z</time></trkpt><trkpt lat="43.31257061631338" lon="10.504768309939395"><ele>2.8571428571428568</ele><time>2026-03-30T16:36:40Z</time></trkpt><trkpt lat="43.312597473072216" lon="10.504854819354051"><ele>3.0</ele><time>2026-03-30T16:36:43Z</time></trkpt><trkpt lat="43.312625386375196" lon="10.504947855351075"><ele>2.9999999999999996</ele><time>2026-03-30T16:36:46Z</time></trkpt><trkpt lat="43.312650149689475" lon="10.50504518036897"><ele>3.0</ele><time>2026-03-30T16:36:49Z</time></trkpt><trkpt lat="43.31267577278713" lon="10.505138478564826"><ele>3.0</ele><time>2026-03-30T16:36:52Z</time></trkpt><trkpt lat="43.31269702543733" lon="10.505239949046755"><ele>3.0</ele><time>2026-03-30T16:36:55Z</time></trkpt><trkpt lat="43.31270685449122" lon="10.50533620528122"><ele>3.0</ele><time>2026-03-30T16:36:58Z</time></trkpt><trkpt lat="43.31272255953879" lon="10.50542855875983"><ele>2.9999999999999996</ele><time>2026-03-30T16:37:01Z</time></trkpt><trkpt lat="43.312734448764196" lon="10.505526972419908"><ele>3.0</ele><time>2026-03-30T16:37:04Z</time></trkpt><trkpt lat="43.312736627243694" lon="10.505626844849619"><ele>2.8571428571428568</ele><time>2026-03-30T16:37:07Z</time></trkpt><trkpt lat="43.31273755057266" lon="10.505724794220141"><ele>2.7142857142857144</ele><time>2026-03-30T16:37:10Z</time></trkpt><trkpt lat="43.31274144288521" lon="10.505822035853212"><ele>2.571428571428571</ele><time>2026-03-30T16:37:13Z</time></trkpt><trkpt lat="43.31274378657337" lon="10.505920114651882"><ele>2.4285714285714284</ele><time>2026-03-30T16:37:16Z</time></trkpt><trkpt lat="43.312741418318" lon="10.506014866962794"><ele>2.2857142857142856</ele><time>2026-03-30T16:37:19Z</time></trkpt><trkpt lat="43.31274145493986" lon="10.5061091785397"><ele>2.142857142857143</ele><time>2026-03-30T16:37:22Z</time></trkpt><trkpt lat="43.31274263395437" lon="10.506208995895902"><ele>2.0</ele><time>2026-03-30T16:37:25Z</time></trkpt><trkpt lat="43.31274283338508" lon="10.506305348153132"><ele>2.0</ele><time>2026-03-30T16:37:28Z</time></trkpt><trkpt lat="43.3127355820537" lon="10.506401647545617"><ele>1.9999999999999998</ele><time>2026-03-30T16:37:31Z</time></trkpt><trkpt lat="43.312739221147574" lon="10.506497225104459"><ele>2.0</ele><time>2026-03-30T16:37:34Z</time></trkpt><trkpt lat="43.31274127937081" lon="10.506591454249406"><ele>2.0</ele><time>2026-03-30T16:37:37Z</time></trkpt><trkpt lat="43.31273704261001" lon="10.506679823047195"><ele>1.9999999999999998</ele><time>2026-03-30T16:37:40Z</time></trkpt><trkpt lat="43.31273473188485" lon="10.50677521801796"><ele>2.0</ele><time>2026-03-30T16:37:43Z</time></trkpt><trkpt lat="43.312733516810574" lon="10.506866092044207"><ele>2.0</ele><time>2026-03-30T16:37:46Z</time></trkpt><trkpt lat="43.31273689325557" lon="10.506961187447352"><ele>2.0</ele><time>2026-03-30T16:37:49Z</time></trkpt><trkpt lat="43.31273747025973" lon="10.50704993503361"><ele>1.9999999999999998</ele><time>2026-03-30T16:37:52Z</time></trkpt><trkpt lat="43.31273805290256" lon="10.507139497214602"><ele>2.0</ele><time>2026-03-30T16:37:55Z</time></trkpt><trkpt lat="43.31274026393252" lon="10.50723380026286"><ele>2.0</ele><time>2026-03-30T16:37:58Z</time></trkpt><trkpt lat="43.312738124037274" lon="10.50732807371053"><ele>1.9999999999999998</ele><time>2026-03-30T16:38:01Z</time></trkpt><trkpt lat="43.31273957886335" lon="10.507424096995626"><ele>2.0</ele><time>2026-03-30T16:38:04Z</time></trkpt><trkpt lat="43.31274199816873" lon="10.507522164508694"><ele>2.0</ele><time>2026-03-30T16:38:07Z</time></trkpt><trkpt lat="43.31274051701964" lon="10.5076140800292"><ele>2.0</ele><time>2026-03-30T16:38:10Z</time></trkpt><trkpt lat="43.312747588074984" lon="10.507715664455299"><ele>1.9999999999999998</ele><time>2026-03-30T16:38:13Z</time></trkpt><trkpt lat="43.31274897883022" lon="10.507805536132262"><ele>2.0</ele><time>2026-03-30T16:38:16Z</time></trkpt><trkpt lat="43.3127553615389" lon="10.5079011724129"><ele>2.0</ele><time>2026-03-30T16:38:19Z</time></trkpt><trkpt lat="43.31275809348942" lon="10.507992186399886"><ele>1.9999999999999998</ele><time>2026-03-30T16:38:22Z</time></trkpt><trkpt lat="43.312762439967635" lon="10.508080799120428"><ele>2.0</ele><time>2026-03-30T16:38:25Z</time></trkpt><trkpt lat="43.31276886798917" lon="10.50817116240322"><ele>2.0</ele><time>2026-03-30T16:38:28Z</time></trkpt><trkpt lat="43.31277639199235" lon="10.508260414613261"><ele>2.142857142857143</ele><time>2026-03-30T16:38:31Z</time></trkpt><trkpt lat="43.312785638253025" lon="10.508351658979615"><ele>2.2857142857142856</ele><time>2026-03-30T16:38:34Z</time></trkpt><trkpt lat="43.31280187137967" lon="10.508445303204324"><ele>2.4285714285714284</ele><time>2026-03-30T16:38:37Z</time></trkpt><trkpt lat="43.31281630834005" lon="10.508542329338809"><ele>2.571428571428571</ele><time>2026-03-30T16:38:40Z</time></trkpt><trkpt lat="43.31283220377722" lon="10.508638388699866"><ele>2.7142857142857144</ele><time>2026-03-30T16:38:43Z</time></trkpt><trkpt lat="43.31284575976021" lon="10.508734350678733"><ele>2.8571428571428568</ele><time>2026-03-30T16:38:46Z</time></trkpt><trkpt lat="43.31285925614287" lon="10.508821900518608"><ele>3.0</ele><time>2026-03-30T16:38:49Z</time></trkpt><trkpt lat="43.31288272896336" lon="10.508914452596338"><ele>3.1428571428571423</ele><time>2026-03-30T16:38:52Z</time></trkpt><trkpt lat="43.31290643063073" lon="10.509000324529058"><ele>3.2857142857142856</ele><time>2026-03-30T16:38:55Z</time></trkpt><trkpt lat="43.31292428545377" lon="10.509086157802885"><ele>3.4285714285714284</ele><time>2026-03-30T16:38:58Z</time></trkpt><trkpt lat="43.31294272169906" lon="10.509170324965728"><ele>3.571428571428571</ele><time>2026-03-30T16:39:01Z</time></trkpt><trkpt lat="43.31296000199804" lon="10.509256469421365"><ele>3.714285714285714</ele><time>2026-03-30T16:39:04Z</time></trkpt><trkpt lat="43.3129840687391" lon="10.509350175109102"><ele>3.8571428571428568</ele><time>2026-03-30T16:39:07Z</time></trkpt><trkpt lat="43.313000639128326" lon="10.50944448839165"><ele>4.0</ele><time>2026-03-30T16:39:10Z</time></trkpt><trkpt lat="43.313013205565646" lon="10.509538557539962"><ele>3.8571428571428568</ele><time>2026-03-30T16:39:13Z</time></trkpt><trkpt lat="43.31303313285493" lon="10.509633751690203"><ele>3.714285714285714</ele><time>2026-03-30T16:39:16Z</time></trkpt><trkpt lat="43.3130496903154" lon="10.509730032543702"><ele>3.571428571428571</ele><time>2026-03-30T16:39:19Z</time></trkpt><trkpt lat="43.31306598309058" lon="10.509818192040026"><ele>3.4285714285714284</ele><time>2026-03-30T16:39:22Z</time></trkpt><trkpt lat="43.31308509153433" lon="10.50990919241557"><ele>3.2857142857142856</ele><time>2026-03-30T16:39:25Z</time></trkpt><trkpt lat="43.31310086226432" lon="10.510009300696213"><ele>3.1428571428571423</ele><time>2026-03-30T16:39:28Z</time></trkpt><trkpt lat="43.31312611483565" lon="10.510100067655898"><ele>3.0</ele><time>2026-03-30T16:39:31Z</time></trkpt><trkpt lat="43.31314327828669" lon="10.510197818563979"><ele>2.9999999999999996</ele><time>2026-03-30T16:39:34Z</time></trkpt><trkpt lat="43.3131610238454" lon="10.510288696442935"><ele>3.0</ele><time>2026-03-30T16:39:37Z</time></trkpt><trkpt lat="43.31317516540299" lon="10.510380440610481"><ele>3.0</ele><time>2026-03-30T16:39:40Z</time></trkpt><trkpt lat="43.31319719969063" lon="10.510474764212786"><ele>3.0</ele><time>2026-03-30T16:39:43Z</time></trkpt><trkpt lat="43.31322024980966" lon="10.510565399706694"><ele>3.0</ele><time>2026-03-30T16:39:46Z</time></trkpt><trkpt lat="43.31325065937502" lon="10.510654877285484"><ele>2.9999999999999996</ele><time>2026-03-30T16:39:49Z</time></trkpt><trkpt lat="43.31329612513667" lon="10.510730631144577"><ele>3.0</ele><time>2026-03-30T16:39:52Z</time></trkpt><trkpt lat="43.31334823141286" lon="10.510807613842983"><ele>3.0</ele><time>2026-03-30T16:39:55Z</time></trkpt><trkpt lat="43.313327153252786" lon="10.510905489888533"><ele>3.0</ele><time>2026-03-30T16:39:58Z</time></trkpt><trkpt lat="43.31335401774652" lon="10.511014421103116"><ele>3.0</ele><time>2026-03-30T16:40:01Z</time></trkpt><trkpt lat="43.313418479395615" lon="10.511033556535425"><ele>3.0</ele><time>2026-03-30T16:40:04Z</time></trkpt><trkpt lat="43.313495985864066" lon="10.51105035507977"><ele>3.0</ele><time>2026-03-30T16:40:07Z</time></trkpt><trkpt lat="43.31353919785334" lon="10.511141983353191"><ele>3.0</ele><time>2026-03-30T16:40:10Z</time></trkpt><trkpt lat="43.313570747435236" lon="10.511240764259727"><ele>3.8571428571428568</ele><time>2026-03-30T16:40:13Z</time></trkpt><trkpt lat="43.31361211536066" lon="10.51134130287976"><ele>4.714285714285714</ele><time>2026-03-30T16:40:16Z</time></trkpt><trkpt lat="43.31363754867776" lon="10.51143680669488"><ele>5.571428571428572</ele><time>2026-03-30T16:40:19Z</time></trkpt><trkpt lat="43.31366456571816" lon="10.51152356165565"><ele>6.428571428571429</ele><time>2026-03-30T16:40:22Z</time></trkpt><trkpt lat="43.313692267163965" lon="10.511631845548148"><ele>7.285714285714286</ele><time>2026-03-30T16:40:26Z</time></trkpt><trkpt lat="43.313715012928206" lon="10.511716639169563"><ele>8.142857142857144</ele><time>2026-03-30T16:40:30Z</time></trkpt><trkpt lat="43.31373468213273" lon="10.511800288063371"><ele>9.0</ele><time>2026-03-30T16:40:34Z</time></trkpt><trkpt lat="43.313747735202234" lon="10.511920587374565"><ele>9.000000000000002</ele><time>2026-03-30T16:40:39Z</time></trkpt><trkpt lat="43.31376689694257" lon="10.512009524409677"><ele>9.0</ele><time>2026-03-30T16:40:41Z</time></trkpt><trkpt lat="43.31378932607246" lon="10.512111092672548"><ele>9.0</ele><time>2026-03-30T16:40:43Z</time></trkpt><trkpt lat="43.31380058122404" lon="10.512202955384542"><ele>9.0</ele><time>2026-03-30T16:40:49Z</time></trkpt><trkpt lat="43.313818029478035" lon="10.51229861894189"><ele>9.0</ele><time>2026-03-30T16:40:52Z</time></trkpt><trkpt lat="43.313833785282924" lon="10.51238388270147"><ele>9.000000000000002</ele><time>2026-03-30T16:40:54Z</time></trkpt><trkpt lat="43.313831150706505" lon="10.512497592110384"><ele>9.0</ele><time>2026-03-30T16:40:57Z</time></trkpt><trkpt lat="43.31380625205642" lon="10.512613541631659"><ele>9.166666666666666</ele><time>2026-03-30T16:41:00Z</time></trkpt><trkpt lat="43.31376629351467" lon="10.512724764136191"><ele>9.333333333333334</ele><time>2026-03-30T16:41:03Z</time></trkpt><trkpt lat="43.31377827720556" lon="10.512861489109408"><ele>9.5</ele><time>2026-03-30T16:41:07Z</time></trkpt><trkpt lat="43.31381784408681" lon="10.512943928217679"><ele>9.666666666666668</ele><time>2026-03-30T16:41:10Z</time></trkpt><trkpt lat="43.31386246024846" lon="10.513041853559818"><ele>9.833333333333334</ele><time>2026-03-30T16:41:14Z</time></trkpt><trkpt lat="43.31388804213522" lon="10.513128429548203"><ele>10.0</ele><time>2026-03-30T16:41:17Z</time></trkpt><trkpt lat="43.3139223692826" lon="10.513216985825498"><ele>9.571428571428571</ele><time>2026-03-30T16:41:20Z</time></trkpt><trkpt lat="43.31395503878663" lon="10.513306296968885"><ele>9.142857142857142</ele><time>2026-03-30T16:41:23Z</time></trkpt><trkpt lat="43.31397970776065" lon="10.513386231659517"><ele>8.714285714285715</ele><time>2026-03-30T16:41:26Z</time></trkpt><trkpt lat="43.31400054181248" lon="10.513478596879207"><ele>8.285714285714285</ele><time>2026-03-30T16:41:30Z</time></trkpt><trkpt lat="43.31403171442774" lon="10.513559494733801"><ele>7.857142857142858</ele><time>2026-03-30T16:41:35Z</time></trkpt><trkpt lat="43.31407493767304" lon="10.513626950240292"><ele>7.428571428571429</ele><time>2026-03-30T16:41:38Z</time></trkpt><trkpt lat="43.31412162574948" lon="10.513708792302669"><ele>7.0</ele><time>2026-03-30T16:41:41Z</time></trkpt><trkpt lat="43.31415238148772" lon="10.51378598452533"><ele>7.0</ele><time>2026-03-30T16:41:43Z</time></trkpt><trkpt lat="43.314175062046615" lon="10.513871030273666"><ele>7.0</ele><time>2026-03-30T16:41:45Z</time></trkpt><trkpt lat="43.314191924919655" lon="10.513966682800165"><ele>7.0</ele><time>2026-03-30T16:41:47Z</time></trkpt><trkpt lat="43.31421808344607" lon="10.514054030260901"><ele>7.0</ele><time>2026-03-30T16:41:49Z</time></trkpt><trkpt lat="43.314248171871405" lon="10.514146462914141"><ele>7.0</ele><time>2026-03-30T16:41:52Z</time></trkpt><trkpt lat="43.3142791112912" lon="10.514232168997799"><ele>7.0</ele><time>2026-03-30T16:41:55Z</time></trkpt><trkpt lat="43.314286162641956" lon="10.514320629552483"><ele>7.0</ele><time>2026-03-30T16:41:59Z</time></trkpt><trkpt lat="43.31427115208957" lon="10.514427613850582"><ele>7.000000000000001</ele><time>2026-03-30T16:42:03Z</time></trkpt><trkpt lat="43.314212101635185" lon="10.514512502395835"><ele>7.0</ele><time>2026-03-30T16:42:06Z</time></trkpt><trkpt lat="43.31423234943403" lon="10.514599704025283"><ele>7.0</ele><time>2026-03-30T16:42:10Z</time></trkpt><trkpt lat="43.31425472452524" lon="10.514712029073861"><ele>7.0</ele><time>2026-03-30T16:42:13Z</time></trkpt><trkpt lat="43.31423432673169" lon="10.514807493193555"><ele>7.000000000000001</ele><time>2026-03-30T16:42:16Z</time></trkpt><trkpt lat="43.3142115882922" lon="10.514916653602473"><ele>7.0</ele><time>2026-03-30T16:42:19Z</time></trkpt><trkpt lat="43.31419146436619" lon="10.515006399183818"><ele>7.333333333333334</ele><time>2026-03-30T16:42:23Z</time></trkpt><trkpt lat="43.3141259758832" lon="10.515053688205775"><ele>7.666666666666667</ele><time>2026-03-30T16:42:25Z</time></trkpt><trkpt lat="43.31409929923024" lon="10.515152748786662"><ele>8.0</ele><time>2026-03-30T16:42:30Z</time></trkpt><trkpt lat="43.3141577861886" lon="10.51521282677961"><ele>8.333333333333334</ele><time>2026-03-30T16:42:34Z</time></trkpt><trkpt lat="43.31423417568493" lon="10.5152692281143"><ele>8.666666666666666</ele><time>2026-03-30T16:42:36Z</time></trkpt><trkpt lat="43.31426849649686" lon="10.515345303064187"><ele>9.0</ele><time>2026-03-30T16:42:38Z</time></trkpt><trkpt lat="43.314236633956305" lon="10.515449740140248"><ele>9.571428571428573</ele><time>2026-03-30T16:42:41Z</time></trkpt><trkpt lat="43.31418684848819" lon="10.515510315107365"><ele>10.142857142857142</ele><time>2026-03-30T16:42:43Z</time></trkpt><trkpt lat="43.31414955984976" lon="10.51562063942071"><ele>10.714285714285715</ele><time>2026-03-30T16:42:46Z</time></trkpt><trkpt lat="43.31414963412621" lon="10.515716863328842"><ele>11.285714285714286</ele><time>2026-03-30T16:42:48Z</time></trkpt><trkpt lat="43.31413209290424" lon="10.515819672476535"><ele>11.857142857142858</ele><time>2026-03-30T16:42:52Z</time></trkpt><trkpt lat="43.31414048875702" lon="10.515913729671604"><ele>12.428571428571429</ele><time>2026-03-30T16:42:56Z</time></trkpt><trkpt lat="43.31416837201757" lon="10.516013262655646"><ele>13.0</ele><time>2026-03-30T16:42:59Z</time></trkpt><trkpt lat="43.314185257096604" lon="10.51611086370189"><ele>12.999999999999998</ele><time>2026-03-30T16:43:03Z</time></trkpt><trkpt lat="43.31423324829225" lon="10.516199288928087"><ele>13.0</ele><time>2026-03-30T16:43:07Z</time></trkpt><trkpt lat="43.314286086761584" lon="10.516274453736626"><ele>13.0</ele><time>2026-03-30T16:43:10Z</time></trkpt><trkpt lat="43.314296671205696" lon="10.516362334718352"><ele>13.0</ele><time>2026-03-30T16:43:13Z</time></trkpt><trkpt lat="43.314345653892794" lon="10.516535310340045"><ele>12.999999999999998</ele><time>2026-03-30T16:43:35Z</time></trkpt><trkpt lat="43.314366207726515" lon="10.516617499976118"><ele>13.0</ele><time>2026-03-30T16:43:47Z</time></trkpt><trkpt lat="43.314378557553276" lon="10.516723267335388"><ele>13.142857142857142</ele><time>2026-03-30T16:43:53Z</time></trkpt><trkpt lat="43.314413743488274" lon="10.516820153704167"><ele>13.285714285714286</ele><time>2026-03-30T16:43:58Z</time></trkpt><trkpt lat="43.3144627024743" lon="10.516889969994512"><ele>13.428571428571429</ele><time>2026-03-30T16:44:03Z</time></trkpt><trkpt lat="43.314471005962695" lon="10.516975937439657"><ele>13.571428571428571</ele><time>2026-03-30T16:44:10Z</time></trkpt><trkpt lat="43.31442011335624" lon="10.517040071628506"><ele>13.714285714285715</ele><time>2026-03-30T16:44:15Z</time></trkpt><trkpt lat="43.31436088642261" lon="10.51710781353404"><ele>13.857142857142858</ele><time>2026-03-30T16:44:20Z</time></trkpt><trkpt lat="43.31432031382984" lon="10.517188476740424"><ele>14.0</ele><time>2026-03-30T16:44:23Z</time></trkpt><trkpt lat="43.31431055207975" lon="10.51727565680619"><ele>14.0</ele><time>2026-03-30T16:44:26Z</time></trkpt><trkpt lat="43.314301234293886" lon="10.517368028832477"><ele>14.0</ele><time>2026-03-30T16:44:31Z</time></trkpt><trkpt lat="43.31431317738887" lon="10.517467618000166"><ele>14.0</ele><time>2026-03-30T16:44:36Z</time></trkpt><trkpt lat="43.31432866278331" lon="10.517564404569644"><ele>14.0</ele><time>2026-03-30T16:44:40Z</time></trkpt><trkpt lat="43.31434459113822" lon="10.517663253380167"><ele>14.0</ele><time>2026-03-30T16:44:44Z</time></trkpt><trkpt lat="43.31435143143737" lon="10.517767730830576"><ele>14.0</ele><time>2026-03-30T16:44:49Z</time></trkpt><trkpt lat="43.31435986112182" lon="10.517863199341738"><ele>14.0</ele><time>2026-03-30T16:44:52Z</time></trkpt><trkpt lat="43.3143752726428" lon="10.517962481904563"><ele>14.142857142857142</ele><time>2026-03-30T16:44:57Z</time></trkpt><trkpt lat="43.31441517285719" lon="10.518045769121974"><ele>14.285714285714285</ele><time>2026-03-30T16:45:01Z</time></trkpt><trkpt lat="43.31445578969308" lon="10.518127328744031"><ele>14.428571428571429</ele><time>2026-03-30T16:45:05Z</time></trkpt><trkpt lat="43.314471418532" lon="10.518226466415602"><ele>14.571428571428571</ele><time>2026-03-30T16:45:10Z</time></trkpt><trkpt lat="43.31453196397752" lon="10.518272758229148"><ele>14.714285714285714</ele><time>2026-03-30T16:45:14Z</time></trkpt><trkpt lat="43.31459077438105" lon="10.51831669999628"><ele>14.857142857142858</ele><time>2026-03-30T16:45:18Z</time></trkpt><trkpt lat="43.314625046231214" lon="10.518405880455074"><ele>15.0</ele><time>2026-03-30T16:45:23Z</time></trkpt><trkpt lat="43.31463862591448" lon="10.518504164624327"><ele>15.0</ele><time>2026-03-30T16:45:27Z</time></trkpt><trkpt lat="43.31462835078885" lon="10.518600712461927"><ele>15.0</ele><time>2026-03-30T16:45:30Z</time></trkpt><trkpt lat="43.31467399110408" lon="10.518671992183142"><ele>15.0</ele><time>2026-03-30T16:45:36Z</time></trkpt><trkpt lat="43.31472381540057" lon="10.51874279535345"><ele>15.0</ele><time>2026-03-30T16:45:45Z</time></trkpt><trkpt lat="43.31476710398852" lon="10.518835585664645"><ele>15.0</ele><time>2026-03-30T16:45:50Z</time></trkpt><trkpt lat="43.314801366098855" lon="10.518928728995698"><ele>15.0</ele><time>2026-03-30T16:45:53Z</time></trkpt><trkpt lat="43.31482168388383" lon="10.51902264237956"><ele>15.0</ele><time>2026-03-30T16:45:56Z</time></trkpt><trkpt lat="43.314827928707395" lon="10.519112364567718"><ele>15.571428571428573</ele><time>2026-03-30T16:45:59Z</time></trkpt><trkpt lat="43.31486194594417" lon="10.519198547001013"><ele>16.142857142857142</ele><time>2026-03-30T16:46:03Z</time></trkpt><trkpt lat="43.3148966748983" lon="10.519283531522655"><ele>16.714285714285715</ele><time>2026-03-30T16:46:08Z</time></trkpt><trkpt lat="43.31490513259776" lon="10.519379357717428"><ele>17.285714285714285</ele><time>2026-03-30T16:46:12Z</time></trkpt><trkpt lat="43.31493737966459" lon="10.519467812337778"><ele>17.857142857142858</ele><time>2026-03-30T16:46:17Z</time></trkpt><trkpt lat="43.3149773624116" lon="10.519547312919102"><ele>18.428571428571427</ele><time>2026-03-30T16:46:22Z</time></trkpt><trkpt lat="43.31499654323817" lon="10.519632912667873"><ele>19.0</ele><time>2026-03-30T16:46:28Z</time></trkpt><trkpt lat="43.31501741750454" lon="10.519738987224313"><ele>19.0</ele><time>2026-03-30T16:46:33Z</time></trkpt><trkpt lat="43.31503659150899" lon="10.519827636329259"><ele>19.0</ele><time>2026-03-30T16:46:36Z</time></trkpt><trkpt lat="43.31508253971702" lon="10.519910854062422"><ele>19.0</ele><time>2026-03-30T16:46:40Z</time></trkpt><trkpt lat="43.31511064027461" lon="10.51999335053116"><ele>19.0</ele><time>2026-03-30T16:46:43Z</time></trkpt><trkpt lat="43.31516065632593" lon="10.520078246993377"><ele>19.0</ele><time>2026-03-30T16:46:48Z</time></trkpt><trkpt lat="43.315163040270455" lon="10.520171692033195"><ele>19.0</ele><time>2026-03-30T16:46:53Z</time></trkpt><trkpt lat="43.31521228860613" lon="10.520243556000578"><ele>19.0</ele><time>2026-03-30T16:46:56Z</time></trkpt><trkpt lat="43.31524069004726" lon="10.520337640477253"><ele>18.333333333333332</ele><time>2026-03-30T16:47:03Z</time></trkpt><trkpt lat="43.31527835268819" lon="10.520413709266295"><ele>17.666666666666664</ele><time>2026-03-30T16:47:07Z</time></trkpt><trkpt lat="43.31525549222507" lon="10.520512066562311"><ele>17.0</ele><time>2026-03-30T16:47:15Z</time></trkpt><trkpt lat="43.315184818172185" lon="10.520530234973034"><ele>16.333333333333332</ele><time>2026-03-30T16:47:18Z</time></trkpt><trkpt lat="43.31510930637684" lon="10.520568025466067"><ele>15.666666666666666</ele><time>2026-03-30T16:47:22Z</time></trkpt><trkpt lat="43.31504082227912" lon="10.520631261595206"><ele>15.0</ele><time>2026-03-30T16:47:25Z</time></trkpt><trkpt lat="43.314968174668294" lon="10.520668480512693"><ele>15.0</ele><time>2026-03-30T16:47:29Z</time></trkpt><trkpt lat="43.31490441842561" lon="10.520676789717623"><ele>15.0</ele><time>2026-03-30T16:47:33Z</time></trkpt><trkpt lat="43.3148336376601" lon="10.520690230573365"><ele>15.0</ele><time>2026-03-30T16:47:38Z</time></trkpt><trkpt lat="43.314768609659126" lon="10.520698083683701"><ele>15.0</ele><time>2026-03-30T16:47:42Z</time></trkpt><trkpt lat="43.31470070105373" lon="10.520714227318756"><ele>15.0</ele><time>2026-03-30T16:47:46Z</time></trkpt><trkpt lat="43.31462977927513" lon="10.520672473203287"><ele>15.0</ele><time>2026-03-30T16:47:52Z</time></trkpt><trkpt lat="43.31456780983051" lon="10.520637317091127"><ele>15.0</ele><time>2026-03-30T16:47:57Z</time></trkpt><trkpt lat="43.31451580231037" lon="10.520688134571571"><ele>15.285714285714286</ele><time>2026-03-30T16:48:05Z</time></trkpt><trkpt lat="43.3144290772924" lon="10.520724585847105"><ele>15.57142857142857</ele><time>2026-03-30T16:48:09Z</time></trkpt><trkpt lat="43.31435812998989" lon="10.520760702074474"><ele>15.857142857142856</ele><time>2026-03-30T16:48:14Z</time></trkpt><trkpt lat="43.31428993757546" lon="10.52075909135863"><ele>16.142857142857142</ele><time>2026-03-30T16:48:20Z</time></trkpt><trkpt lat="43.314224384735745" lon="10.520775226661636"><ele>16.428571428571427</ele><time>2026-03-30T16:48:24Z</time></trkpt><trkpt lat="43.314163478591134" lon="10.520739542758104"><ele>16.71428571428571</ele><time>2026-03-30T16:48:30Z</time></trkpt><trkpt lat="43.31412134544112" lon="10.520826024323839"><ele>17.0</ele><time>2026-03-30T16:48:41Z</time></trkpt><trkpt lat="43.31409012034769" lon="10.52074109820229"><ele>17.0</ele><time>2026-03-30T16:49:06Z</time></trkpt><trkpt lat="43.31413537361779" lon="10.520671701145023"><ele>17.0</ele><time>2026-03-30T16:49:09Z</time></trkpt><trkpt lat="43.31392108241259" lon="10.520787170699471"><ele>17.0</ele><time>2026-03-30T16:49:30.511Z</time></trkpt><trkpt lat="43.31396097509674" lon="10.520719934230215"><ele>17.0</ele><time>2026-03-30T16:49:40.126Z</time></trkpt><trkpt lat="43.31389733048006" lon="10.520863731712652"><ele>17.0</ele><time>2026-03-30T16:50:27.258Z</time></trkpt><trkpt lat="43.313868581617264" lon="10.521125424073858"><ele>17.0</ele><time>2026-03-30T16:50:33.949Z</time></trkpt><trkpt lat="43.31388857258831" lon="10.520937817091294"><ele>17.0</ele><time>2026-03-30T16:50:50.539Z</time></trkpt><trkpt lat="43.31398889326912" lon="10.520921474050391"><ele>17.0</ele><time>2026-03-30T16:50:52.71Z</time></trkpt><trkpt lat="43.31414787802441" lon="10.520982801325744"><ele>17.0</ele><time>2026-03-30T16:51:24.376Z</time></trkpt><trkpt lat="43.313970151616346" lon="10.520702188821012"><ele>17.0</ele><time>2026-03-30T16:51:44.9Z</time></trkpt><trkpt lat="43.314036990266366" lon="10.520794656384687"><ele>17.0</ele><time>2026-03-30T16:51:58.2Z</time></trkpt><trkpt lat="43.3140833954942" lon="10.520855981824058"><ele>17.0</ele><time>2026-03-30T16:52:01.05Z</time></trkpt><trkpt lat="43.31408642679201" lon="10.520742591208446"><ele>17.0</ele><time>2026-03-30T16:52:11Z</time></trkpt><trkpt lat="43.314041638931805" lon="10.520654158896678"><ele>17.0</ele><time>2026-03-30T16:52:14Z</time></trkpt><trkpt lat="43.31400782888841" lon="10.520730053276484"><ele>17.0</ele><time>2026-03-30T16:52:17Z</time></trkpt><trkpt lat="43.31404610294264" lon="10.520875017688697"><ele>17.0</ele><time>2026-03-30T16:52:20.026Z</time></trkpt><trkpt lat="43.314071864177386" lon="10.521025275400282"><ele>17.0</ele><time>2026-03-30T16:52:22.026Z</time></trkpt><trkpt lat="43.31409247941909" lon="10.52118142214246"><ele>17.0</ele><time>2026-03-30T16:52:24.026Z</time></trkpt><trkpt lat="43.3141062100621" lon="10.521332755642904"><ele>17.0</ele><time>2026-03-30T16:52:25.877Z</time></trkpt><trkpt lat="43.313993067454334" lon="10.521412117842711"><ele>17.0</ele><time>2026-03-30T16:52:42.908Z</time></trkpt><trkpt lat="43.31400031181347" lon="10.521119211881043"><ele>16.999999999999996</ele><time>2026-03-30T16:52:49.525Z</time></trkpt><trkpt lat="43.31406927906249" lon="10.521124690960852"><ele>17.0</ele><time>2026-03-30T16:52:53.3Z</time></trkpt><trkpt lat="43.31407899839518" lon="10.52103747234593"><ele>17.0</ele><time>2026-03-30T16:53:01Z</time></trkpt><trkpt lat="43.31410788886447" lon="10.520954316256864"><ele>17.0</ele><time>2026-03-30T16:53:08Z</time></trkpt><trkpt lat="43.31408296811282" lon="10.520873594492098"><ele>17.0</ele><time>2026-03-30T16:53:30Z</time></trkpt><trkpt lat="43.314023369524094" lon="10.52092357608012"><ele>16.999999999999996</ele><time>2026-03-30T16:53:40Z</time></trkpt><trkpt lat="43.313953079268586" lon="10.520937488996822"><ele>17.0</ele><time>2026-03-30T16:53:44Z</time></trkpt><trkpt lat="43.31388911575717" lon="10.520990230039311"><ele>17.333333333333336</ele><time>2026-03-30T16:53:48Z</time></trkpt><trkpt lat="43.3138180839114" lon="10.521064817409009"><ele>17.666666666666668</ele><time>2026-03-30T16:53:52Z</time></trkpt><trkpt lat="43.3137543607094" lon="10.521129922515168"><ele>18.0</ele><time>2026-03-30T16:53:55Z</time></trkpt><trkpt lat="43.313717088616855" lon="10.521223304403282"><ele>18.333333333333332</ele><time>2026-03-30T16:53:59Z</time></trkpt><trkpt lat="43.31368365418566" lon="10.521307500051638"><ele>18.666666666666664</ele><time>2026-03-30T16:54:03Z</time></trkpt><trkpt lat="43.31364948044262" lon="10.52139791216057"><ele>19.0</ele><time>2026-03-30T16:54:08Z</time></trkpt><trkpt lat="43.313612346270666" lon="10.521487815531112"><ele>19.0</ele><time>2026-03-30T16:54:13Z</time></trkpt><trkpt lat="43.313575770118106" lon="10.521582721552733"><ele>19.0</ele><time>2026-03-30T16:54:18Z</time></trkpt><trkpt lat="43.31353801205643" lon="10.521674291512516"><ele>19.0</ele><time>2026-03-30T16:54:23Z</time></trkpt><trkpt lat="43.3135117645669" lon="10.521756226747733"><ele>19.0</ele><time>2026-03-30T16:54:27Z</time></trkpt><trkpt lat="43.313473305807726" lon="10.521846889500708"><ele>19.0</ele><time>2026-03-30T16:54:32Z</time></trkpt><trkpt lat="43.31344007228232" lon="10.521944938663404"><ele>19.0</ele><time>2026-03-30T16:54:37Z</time></trkpt><trkpt lat="43.313367586981684" lon="10.521968638750959"><ele>19.0</ele><time>2026-03-30T16:54:42Z</time></trkpt><trkpt lat="43.3133259563435" lon="10.522043057116058"><ele>18.857142857142858</ele><time>2026-03-30T16:54:46Z</time></trkpt><trkpt lat="43.31326471819683" lon="10.522107713488598"><ele>18.714285714285715</ele><time>2026-03-30T16:54:52Z</time></trkpt><trkpt lat="43.313198821637016" lon="10.52212372269993"><ele>18.571428571428573</ele><time>2026-03-30T16:54:57Z</time></trkpt><trkpt lat="43.31313187271329" lon="10.522171910144927"><ele>18.42857142857143</ele><time>2026-03-30T16:55:01Z</time></trkpt><trkpt lat="43.31306565039526" lon="10.522198839085526"><ele>18.285714285714285</ele><time>2026-03-30T16:55:05Z</time></trkpt><trkpt lat="43.31300956620836" lon="10.522261890112388"><ele>18.142857142857146</ele><time>2026-03-30T16:55:10Z</time></trkpt><trkpt lat="43.312935167056885" lon="10.522256429642"><ele>18.0</ele><time>2026-03-30T16:55:14Z</time></trkpt><trkpt lat="43.31286335908044" lon="10.52225779607947"><ele>18.28571428571429</ele><time>2026-03-30T16:55:19Z</time></trkpt><trkpt lat="43.31281364923667" lon="10.522324616440368"><ele>18.571428571428573</ele><time>2026-03-30T16:55:23Z</time></trkpt><trkpt lat="43.312760009948754" lon="10.522370741400145"><ele>18.857142857142858</ele><time>2026-03-30T16:55:27Z</time></trkpt><trkpt lat="43.31269050341077" lon="10.522406984330438"><ele>19.142857142857146</ele><time>2026-03-30T16:55:31Z</time></trkpt><trkpt lat="43.312625176085724" lon="10.522441986932987"><ele>19.42857142857143</ele><time>2026-03-30T16:55:35Z</time></trkpt><trkpt lat="43.31256374138521" lon="10.522475974528977"><ele>19.714285714285715</ele><time>2026-03-30T16:55:39Z</time></trkpt><trkpt lat="43.31249192806464" lon="10.522502131683215"><ele>20.0</ele><time>2026-03-30T16:55:44Z</time></trkpt><trkpt lat="43.31242112546182" lon="10.522551442109105"><ele>20.0</ele><time>2026-03-30T16:55:47Z</time></trkpt><trkpt lat="43.31235771578442" lon="10.522572583662676"><ele>20.0</ele><time>2026-03-30T16:55:51Z</time></trkpt><trkpt lat="43.31228848540575" lon="10.522565051846886"><ele>20.0</ele><time>2026-03-30T16:55:56Z</time></trkpt><trkpt lat="43.31223075750414" lon="10.522617186774983"><ele>20.0</ele><time>2026-03-30T16:56:02Z</time></trkpt><trkpt lat="43.312188553693424" lon="10.522682862085025"><ele>20.0</ele><time>2026-03-30T16:56:08Z</time></trkpt><trkpt lat="43.31212249434518" lon="10.522708795787818"><ele>20.0</ele><time>2026-03-30T16:56:14Z</time></trkpt><trkpt lat="43.31205256752428" lon="10.52273875475504"><ele>20.0</ele><time>2026-03-30T16:56:19Z</time></trkpt><trkpt lat="43.31197519055243" lon="10.52277330879644"><ele>19.857142857142858</ele><time>2026-03-30T16:56:23Z</time></trkpt><trkpt lat="43.311921253550615" lon="10.522819074009744"><ele>19.714285714285715</ele><time>2026-03-30T16:56:26Z</time></trkpt><trkpt lat="43.31187392415789" lon="10.522881879800602"><ele>19.57142857142857</ele><time>2026-03-30T16:56:29Z</time></trkpt><trkpt lat="43.31181889709833" lon="10.522927495774086"><ele>19.42857142857143</ele><time>2026-03-30T16:56:34Z</time></trkpt><trkpt lat="43.31176206672006" lon="10.5229669011871"><ele>19.28571428571429</ele><time>2026-03-30T16:56:39Z</time></trkpt><trkpt lat="43.31169024429856" lon="10.522991856729666"><ele>19.142857142857142</ele><time>2026-03-30T16:56:44Z</time></trkpt><trkpt lat="43.31163120303794" lon="10.523041029304249"><ele>19.0</ele><time>2026-03-30T16:56:47Z</time></trkpt><trkpt lat="43.31156435346753" lon="10.523076021505311"><ele>18.75</ele><time>2026-03-30T16:56:50Z</time></trkpt><trkpt lat="43.3114954121111" lon="10.523107889636307"><ele>18.5</ele><time>2026-03-30T16:56:54Z</time></trkpt><trkpt lat="43.31141582426221" lon="10.523148280647577"><ele>18.25</ele><time>2026-03-30T16:56:59Z</time></trkpt><trkpt lat="43.31131780280816" lon="10.523186998309694"><ele>18.0</ele><time>2026-03-30T16:57:16.026Z</time></trkpt><trkpt lat="43.31130767374441" lon="10.522813775757983"><ele>16.0</ele><time>2026-03-30T16:57:18.775Z</time></trkpt><trkpt lat="43.31127250878677" lon="10.52271708861543"><ele>16.0</ele><time>2026-03-30T16:57:20.576Z</time></trkpt></trkseg></trk></gpx>